<?xml version="1.0" encoding="UTF-8" standalone="no" ?>
<gpx xmlns="http://www.topografix.com/GPX/1/1" xmlns:xsi="http://www.w3.org/2001/XMLSchema-instance" xsi:schemaLocation="http://www.topografix.com/GPX/1/1 http://www.topografix.com/GPX/1/1/gpx.xsd" version="1.1" creator="VisuGPX - https://www.visugpx.com">
  <metadata>
    <name>2017-05-03 - Obersteinbach, Arnsbourg, Wasigenstein, Zigeunerfelsen, Fr&amp;#339;nsbourg</name>
    <desc><![CDATA[2017-05-03 - Obersteinbach, Arnsbourg, Wasigenstein, Zigeunerfelsen, Frœnsbourg - Reconnaissance de la randonnée programmée le 11 juillet - Isabelle & Denis]]></desc>
  </metadata>
  <trk>
    <name><![CDATA[MAI-03-17 16:35:09]]></name>
    <trkseg>
      <trkpt lat="49.03661" lon="7.68424">
        <ele>239.02</ele>
        <time>2017-05-03T07:44:26Z</time>
      </trkpt>
      <trkpt lat="49.03663" lon="7.68408">
        <ele>239.02</ele>
        <time>2017-05-03T07:44:34Z</time>
      </trkpt>
      <trkpt lat="49.03666" lon="7.68393">
        <ele>239.99</ele>
        <time>2017-05-03T07:44:42Z</time>
      </trkpt>
      <trkpt lat="49.03669" lon="7.68379">
        <ele>239.51</ele>
        <time>2017-05-03T07:44:50Z</time>
      </trkpt>
      <trkpt lat="49.03672" lon="7.68366">
        <ele>239.99</ele>
        <time>2017-05-03T07:44:58Z</time>
      </trkpt>
      <trkpt lat="49.03676" lon="7.68351">
        <ele>240.47</ele>
        <time>2017-05-03T07:45:07Z</time>
      </trkpt>
      <trkpt lat="49.03683" lon="7.68344">
        <ele>240.95</ele>
        <time>2017-05-03T07:45:16Z</time>
      </trkpt>
      <trkpt lat="49.03693" lon="7.68352">
        <ele>243.35</ele>
        <time>2017-05-03T07:45:26Z</time>
      </trkpt>
      <trkpt lat="49.03704" lon="7.68361">
        <ele>244.79</ele>
        <time>2017-05-03T07:45:35Z</time>
      </trkpt>
      <trkpt lat="49.03713" lon="7.68365">
        <ele>246.72</ele>
        <time>2017-05-03T07:45:48Z</time>
      </trkpt>
      <trkpt lat="49.0372" lon="7.68379">
        <ele>250.08</ele>
        <time>2017-05-03T07:46:02Z</time>
      </trkpt>
      <trkpt lat="49.03721" lon="7.68394">
        <ele>251.52</ele>
        <time>2017-05-03T07:46:13Z</time>
      </trkpt>
      <trkpt lat="49.03721" lon="7.68412">
        <ele>253.44</ele>
        <time>2017-05-03T07:46:28Z</time>
      </trkpt>
      <trkpt lat="49.03722" lon="7.68436">
        <ele>254.41</ele>
        <time>2017-05-03T07:46:47Z</time>
      </trkpt>
      <trkpt lat="49.03724" lon="7.68458">
        <ele>257.29</ele>
        <time>2017-05-03T07:47:04Z</time>
      </trkpt>
      <trkpt lat="49.03722" lon="7.68477">
        <ele>258.73</ele>
        <time>2017-05-03T07:47:23Z</time>
      </trkpt>
      <trkpt lat="49.03722" lon="7.6849">
        <ele>258.25</ele>
        <time>2017-05-03T07:47:38Z</time>
      </trkpt>
      <trkpt lat="49.03719" lon="7.68519">
        <ele>257.77</ele>
        <time>2017-05-03T07:47:53Z</time>
      </trkpt>
      <trkpt lat="49.03717" lon="7.68537">
        <ele>256.33</ele>
        <time>2017-05-03T07:48:09Z</time>
      </trkpt>
      <trkpt lat="49.03716" lon="7.68554">
        <ele>253.93</ele>
        <time>2017-05-03T07:48:24Z</time>
      </trkpt>
      <trkpt lat="49.03718" lon="7.68573">
        <ele>256.81</ele>
        <time>2017-05-03T07:48:35Z</time>
      </trkpt>
      <trkpt lat="49.03721" lon="7.68592">
        <ele>257.29</ele>
        <time>2017-05-03T07:48:48Z</time>
      </trkpt>
      <trkpt lat="49.03727" lon="7.68607">
        <ele>254.41</ele>
        <time>2017-05-03T07:49:01Z</time>
      </trkpt>
      <trkpt lat="49.03729" lon="7.68631">
        <ele>255.37</ele>
        <time>2017-05-03T07:49:17Z</time>
      </trkpt>
      <trkpt lat="49.03729" lon="7.68655">
        <ele>256.81</ele>
        <time>2017-05-03T07:49:32Z</time>
      </trkpt>
      <trkpt lat="49.03736" lon="7.68668">
        <ele>258.73</ele>
        <time>2017-05-03T07:49:45Z</time>
      </trkpt>
      <trkpt lat="49.03746" lon="7.6869">
        <ele>261.62</ele>
        <time>2017-05-03T07:49:59Z</time>
      </trkpt>
      <trkpt lat="49.03756" lon="7.68704">
        <ele>262.1</ele>
        <time>2017-05-03T07:50:12Z</time>
      </trkpt>
      <trkpt lat="49.03763" lon="7.68717">
        <ele>262.58</ele>
        <time>2017-05-03T07:50:25Z</time>
      </trkpt>
      <trkpt lat="49.03777" lon="7.68721">
        <ele>264.98</ele>
        <time>2017-05-03T07:50:37Z</time>
      </trkpt>
      <trkpt lat="49.03787" lon="7.68732">
        <ele>264.5</ele>
        <time>2017-05-03T07:50:47Z</time>
      </trkpt>
      <trkpt lat="49.03793" lon="7.68749">
        <ele>264.98</ele>
        <time>2017-05-03T07:51:01Z</time>
      </trkpt>
      <trkpt lat="49.038" lon="7.6876">
        <ele>267.38</ele>
        <time>2017-05-03T07:51:16Z</time>
      </trkpt>
      <trkpt lat="49.03813" lon="7.68765">
        <ele>268.35</ele>
        <time>2017-05-03T07:51:28Z</time>
      </trkpt>
      <trkpt lat="49.03825" lon="7.68767">
        <ele>268.35</ele>
        <time>2017-05-03T07:51:43Z</time>
      </trkpt>
      <trkpt lat="49.03837" lon="7.68771">
        <ele>273.63</ele>
        <time>2017-05-03T07:51:58Z</time>
      </trkpt>
      <trkpt lat="49.03848" lon="7.68771">
        <ele>272.67</ele>
        <time>2017-05-03T07:52:09Z</time>
      </trkpt>
      <trkpt lat="49.03857" lon="7.68784">
        <ele>271.71</ele>
        <time>2017-05-03T07:52:23Z</time>
      </trkpt>
      <trkpt lat="49.03867" lon="7.6879">
        <ele>273.15</ele>
        <time>2017-05-03T07:52:42Z</time>
      </trkpt>
      <trkpt lat="49.03878" lon="7.68787">
        <ele>274.59</ele>
        <time>2017-05-03T07:53:53Z</time>
      </trkpt>
      <trkpt lat="49.03885" lon="7.68789">
        <ele>279.4</ele>
        <time>2017-05-03T07:54:11Z</time>
      </trkpt>
      <trkpt lat="49.03898" lon="7.68806">
        <ele>278.92</ele>
        <time>2017-05-03T07:54:25Z</time>
      </trkpt>
      <trkpt lat="49.03904" lon="7.68822">
        <ele>281.8</ele>
        <time>2017-05-03T07:54:43Z</time>
      </trkpt>
      <trkpt lat="49.03914" lon="7.68861">
        <ele>283.73</ele>
        <time>2017-05-03T07:55:05Z</time>
      </trkpt>
      <trkpt lat="49.03919" lon="7.68885">
        <ele>285.65</ele>
        <time>2017-05-03T07:55:24Z</time>
      </trkpt>
      <trkpt lat="49.03919" lon="7.68904">
        <ele>287.57</ele>
        <time>2017-05-03T07:55:43Z</time>
      </trkpt>
      <trkpt lat="49.03919" lon="7.68923">
        <ele>291.9</ele>
        <time>2017-05-03T07:56:08Z</time>
      </trkpt>
      <trkpt lat="49.03921" lon="7.68956">
        <ele>294.78</ele>
        <time>2017-05-03T07:56:31Z</time>
      </trkpt>
      <trkpt lat="49.0392" lon="7.68975">
        <ele>295.26</ele>
        <time>2017-05-03T07:56:50Z</time>
      </trkpt>
      <trkpt lat="49.03915" lon="7.68985">
        <ele>296.7</ele>
        <time>2017-05-03T07:57:17Z</time>
      </trkpt>
      <trkpt lat="49.03907" lon="7.68991">
        <ele>299.11</ele>
        <time>2017-05-03T07:57:36Z</time>
      </trkpt>
      <trkpt lat="49.03896" lon="7.69003">
        <ele>299.59</ele>
        <time>2017-05-03T07:58:27Z</time>
      </trkpt>
      <trkpt lat="49.03886" lon="7.69017">
        <ele>300.07</ele>
        <time>2017-05-03T07:58:53Z</time>
      </trkpt>
      <trkpt lat="49.03882" lon="7.69035">
        <ele>300.55</ele>
        <time>2017-05-03T07:59:09Z</time>
      </trkpt>
      <trkpt lat="49.03876" lon="7.69044">
        <ele>303.43</ele>
        <time>2017-05-03T08:00:26Z</time>
      </trkpt>
      <trkpt lat="49.03868" lon="7.69048">
        <ele>308.24</ele>
        <time>2017-05-03T08:00:47Z</time>
      </trkpt>
      <trkpt lat="49.03861" lon="7.69047">
        <ele>314.01</ele>
        <time>2017-05-03T08:01:07Z</time>
      </trkpt>
      <trkpt lat="49.03873" lon="7.69031">
        <ele>316.89</ele>
        <time>2017-05-03T08:01:47Z</time>
      </trkpt>
      <trkpt lat="49.03877" lon="7.69045">
        <ele>317.37</ele>
        <time>2017-05-03T08:02:16Z</time>
      </trkpt>
      <trkpt lat="49.03879" lon="7.6906">
        <ele>315.93</ele>
        <time>2017-05-03T08:02:29Z</time>
      </trkpt>
      <trkpt lat="49.03871" lon="7.69034">
        <ele>318.81</ele>
        <time>2017-05-03T08:02:48Z</time>
      </trkpt>
      <trkpt lat="49.03864" lon="7.69036">
        <ele>314.49</ele>
        <time>2017-05-03T08:03:03Z</time>
      </trkpt>
      <trkpt lat="49.03867" lon="7.69041">
        <ele>307.76</ele>
        <time>2017-05-03T08:03:33Z</time>
      </trkpt>
      <trkpt lat="49.03867" lon="7.69048">
        <ele>303.43</ele>
        <time>2017-05-03T08:04:05Z</time>
      </trkpt>
      <trkpt lat="49.03873" lon="7.69052">
        <ele>300.55</ele>
        <time>2017-05-03T08:04:28Z</time>
      </trkpt>
      <trkpt lat="49.03884" lon="7.69075">
        <ele>299.59</ele>
        <time>2017-05-03T08:04:41Z</time>
      </trkpt>
      <trkpt lat="49.03892" lon="7.69089">
        <ele>298.63</ele>
        <time>2017-05-03T08:05:05Z</time>
      </trkpt>
      <trkpt lat="49.039" lon="7.69104">
        <ele>299.11</ele>
        <time>2017-05-03T08:05:30Z</time>
      </trkpt>
      <trkpt lat="49.039" lon="7.6912">
        <ele>297.67</ele>
        <time>2017-05-03T08:05:59Z</time>
      </trkpt>
      <trkpt lat="49.03899" lon="7.69093">
        <ele>298.63</ele>
        <time>2017-05-03T08:06:16Z</time>
      </trkpt>
      <trkpt lat="49.03891" lon="7.6908">
        <ele>299.59</ele>
        <time>2017-05-03T08:06:26Z</time>
      </trkpt>
      <trkpt lat="49.03896" lon="7.69078">
        <ele>301.99</ele>
        <time>2017-05-03T08:06:41Z</time>
      </trkpt>
      <trkpt lat="49.03903" lon="7.69091">
        <ele>302.47</ele>
        <time>2017-05-03T08:07:03Z</time>
      </trkpt>
      <trkpt lat="49.03911" lon="7.69105">
        <ele>307.28</ele>
        <time>2017-05-03T08:07:35Z</time>
      </trkpt>
      <trkpt lat="49.03924" lon="7.69117">
        <ele>310.64</ele>
        <time>2017-05-03T08:08:41Z</time>
      </trkpt>
      <trkpt lat="49.03925" lon="7.69124">
        <ele>311.12</ele>
        <time>2017-05-03T08:09:21Z</time>
      </trkpt>
      <trkpt lat="49.03914" lon="7.69106">
        <ele>307.28</ele>
        <time>2017-05-03T08:09:43Z</time>
      </trkpt>
      <trkpt lat="49.03898" lon="7.6909">
        <ele>303.43</ele>
        <time>2017-05-03T08:09:58Z</time>
      </trkpt>
      <trkpt lat="49.03891" lon="7.69075">
        <ele>302.47</ele>
        <time>2017-05-03T08:10:21Z</time>
      </trkpt>
      <trkpt lat="49.03885" lon="7.69065">
        <ele>303.43</ele>
        <time>2017-05-03T08:10:30Z</time>
      </trkpt>
      <trkpt lat="49.0388" lon="7.69055">
        <ele>305.84</ele>
        <time>2017-05-03T08:10:54Z</time>
      </trkpt>
      <trkpt lat="49.03884" lon="7.6904">
        <ele>302.95</ele>
        <time>2017-05-03T08:11:14Z</time>
      </trkpt>
      <trkpt lat="49.03894" lon="7.69028">
        <ele>302.47</ele>
        <time>2017-05-03T08:11:44Z</time>
      </trkpt>
      <trkpt lat="49.03903" lon="7.69015">
        <ele>303.43</ele>
        <time>2017-05-03T08:12:05Z</time>
      </trkpt>
      <trkpt lat="49.03917" lon="7.68999">
        <ele>307.76</ele>
        <time>2017-05-03T08:12:48Z</time>
      </trkpt>
      <trkpt lat="49.03933" lon="7.68984">
        <ele>302.95</ele>
        <time>2017-05-03T08:13:10Z</time>
      </trkpt>
      <trkpt lat="49.03949" lon="7.68963">
        <ele>309.68</ele>
        <time>2017-05-03T08:13:33Z</time>
      </trkpt>
      <trkpt lat="49.03957" lon="7.68924">
        <ele>307.28</ele>
        <time>2017-05-03T08:13:54Z</time>
      </trkpt>
      <trkpt lat="49.03959" lon="7.68899">
        <ele>311.6</ele>
        <time>2017-05-03T08:14:15Z</time>
      </trkpt>
      <trkpt lat="49.03967" lon="7.6887">
        <ele>316.41</ele>
        <time>2017-05-03T08:14:36Z</time>
      </trkpt>
      <trkpt lat="49.03966" lon="7.6884">
        <ele>316.89</ele>
        <time>2017-05-03T08:15:00Z</time>
      </trkpt>
      <trkpt lat="49.03958" lon="7.68816">
        <ele>320.74</ele>
        <time>2017-05-03T08:15:20Z</time>
      </trkpt>
      <trkpt lat="49.03965" lon="7.68795">
        <ele>323.14</ele>
        <time>2017-05-03T08:15:41Z</time>
      </trkpt>
      <trkpt lat="49.03972" lon="7.68774">
        <ele>323.14</ele>
        <time>2017-05-03T08:15:57Z</time>
      </trkpt>
      <trkpt lat="49.03954" lon="7.68756">
        <ele>325.06</ele>
        <time>2017-05-03T08:16:28Z</time>
      </trkpt>
      <trkpt lat="49.03951" lon="7.6872">
        <ele>330.35</ele>
        <time>2017-05-03T08:16:51Z</time>
      </trkpt>
      <trkpt lat="49.03945" lon="7.68702">
        <ele>332.75</ele>
        <time>2017-05-03T08:17:35Z</time>
      </trkpt>
      <trkpt lat="49.03955" lon="7.68719">
        <ele>339</ele>
        <time>2017-05-03T08:18:11Z</time>
      </trkpt>
      <trkpt lat="49.03962" lon="7.68712">
        <ele>345.73</ele>
        <time>2017-05-03T08:18:47Z</time>
      </trkpt>
      <trkpt lat="49.03963" lon="7.6871">
        <ele>347.17</ele>
        <time>2017-05-03T08:19:11Z</time>
      </trkpt>
      <trkpt lat="49.03965" lon="7.68709">
        <ele>348.13</ele>
        <time>2017-05-03T08:20:28Z</time>
      </trkpt>
      <trkpt lat="49.03964" lon="7.68691">
        <ele>346.69</ele>
        <time>2017-05-03T08:20:42Z</time>
      </trkpt>
      <trkpt lat="49.03949" lon="7.68669">
        <ele>344.77</ele>
        <time>2017-05-03T08:20:59Z</time>
      </trkpt>
      <trkpt lat="49.03936" lon="7.6865">
        <ele>342.85</ele>
        <time>2017-05-03T08:21:15Z</time>
      </trkpt>
      <trkpt lat="49.03921" lon="7.68639">
        <ele>342.37</ele>
        <time>2017-05-03T08:21:25Z</time>
      </trkpt>
      <trkpt lat="49.03908" lon="7.68633">
        <ele>343.81</ele>
        <time>2017-05-03T08:21:37Z</time>
      </trkpt>
      <trkpt lat="49.03897" lon="7.68621">
        <ele>342.37</ele>
        <time>2017-05-03T08:21:51Z</time>
      </trkpt>
      <trkpt lat="49.03884" lon="7.68603">
        <ele>341.41</ele>
        <time>2017-05-03T08:22:06Z</time>
      </trkpt>
      <trkpt lat="49.03867" lon="7.68587">
        <ele>339.96</ele>
        <time>2017-05-03T08:22:19Z</time>
      </trkpt>
      <trkpt lat="49.03854" lon="7.68577">
        <ele>342.85</ele>
        <time>2017-05-03T08:22:31Z</time>
      </trkpt>
      <trkpt lat="49.03842" lon="7.68572">
        <ele>339.48</ele>
        <time>2017-05-03T08:22:42Z</time>
      </trkpt>
      <trkpt lat="49.03829" lon="7.68568">
        <ele>340.92</ele>
        <time>2017-05-03T08:22:55Z</time>
      </trkpt>
      <trkpt lat="49.03817" lon="7.68565">
        <ele>339.96</ele>
        <time>2017-05-03T08:23:06Z</time>
      </trkpt>
      <trkpt lat="49.03815" lon="7.68548">
        <ele>339</ele>
        <time>2017-05-03T08:23:20Z</time>
      </trkpt>
      <trkpt lat="49.03822" lon="7.68535">
        <ele>337.56</ele>
        <time>2017-05-03T08:23:30Z</time>
      </trkpt>
      <trkpt lat="49.0383" lon="7.6852">
        <ele>336.6</ele>
        <time>2017-05-03T08:23:39Z</time>
      </trkpt>
      <trkpt lat="49.03838" lon="7.68508">
        <ele>335.16</ele>
        <time>2017-05-03T08:23:48Z</time>
      </trkpt>
      <trkpt lat="49.03841" lon="7.6849">
        <ele>334.68</ele>
        <time>2017-05-03T08:23:57Z</time>
      </trkpt>
      <trkpt lat="49.03842" lon="7.68471">
        <ele>333.71</ele>
        <time>2017-05-03T08:24:08Z</time>
      </trkpt>
      <trkpt lat="49.03842" lon="7.68448">
        <ele>332.75</ele>
        <time>2017-05-03T08:24:20Z</time>
      </trkpt>
      <trkpt lat="49.03839" lon="7.68427">
        <ele>331.79</ele>
        <time>2017-05-03T08:24:31Z</time>
      </trkpt>
      <trkpt lat="49.03839" lon="7.68411">
        <ele>327.95</ele>
        <time>2017-05-03T08:24:41Z</time>
      </trkpt>
      <trkpt lat="49.03837" lon="7.68391">
        <ele>330.83</ele>
        <time>2017-05-03T08:24:51Z</time>
      </trkpt>
      <trkpt lat="49.03837" lon="7.6837">
        <ele>328.91</ele>
        <time>2017-05-03T08:25:01Z</time>
      </trkpt>
      <trkpt lat="49.03844" lon="7.68359">
        <ele>326.99</ele>
        <time>2017-05-03T08:25:12Z</time>
      </trkpt>
      <trkpt lat="49.03861" lon="7.68365">
        <ele>322.66</ele>
        <time>2017-05-03T08:25:26Z</time>
      </trkpt>
      <trkpt lat="49.03876" lon="7.68364">
        <ele>322.66</ele>
        <time>2017-05-03T08:25:40Z</time>
      </trkpt>
      <trkpt lat="49.03887" lon="7.68367">
        <ele>321.7</ele>
        <time>2017-05-03T08:25:54Z</time>
      </trkpt>
      <trkpt lat="49.03901" lon="7.68371">
        <ele>319.78</ele>
        <time>2017-05-03T08:26:05Z</time>
      </trkpt>
      <trkpt lat="49.0391" lon="7.68374">
        <ele>323.14</ele>
        <time>2017-05-03T08:26:14Z</time>
      </trkpt>
      <trkpt lat="49.03923" lon="7.68377">
        <ele>319.3</ele>
        <time>2017-05-03T08:26:24Z</time>
      </trkpt>
      <trkpt lat="49.03938" lon="7.68378">
        <ele>318.33</ele>
        <time>2017-05-03T08:26:37Z</time>
      </trkpt>
      <trkpt lat="49.03951" lon="7.68381">
        <ele>317.37</ele>
        <time>2017-05-03T08:26:50Z</time>
      </trkpt>
      <trkpt lat="49.03959" lon="7.68385">
        <ele>318.33</ele>
        <time>2017-05-03T08:27:14Z</time>
      </trkpt>
      <trkpt lat="49.03967" lon="7.68386">
        <ele>319.78</ele>
        <time>2017-05-03T08:27:30Z</time>
      </trkpt>
      <trkpt lat="49.03983" lon="7.68393">
        <ele>319.3</ele>
        <time>2017-05-03T08:27:47Z</time>
      </trkpt>
      <trkpt lat="49.03996" lon="7.68407">
        <ele>319.78</ele>
        <time>2017-05-03T08:28:01Z</time>
      </trkpt>
      <trkpt lat="49.04006" lon="7.68427">
        <ele>324.1</ele>
        <time>2017-05-03T08:28:23Z</time>
      </trkpt>
      <trkpt lat="49.04022" lon="7.68445">
        <ele>327.95</ele>
        <time>2017-05-03T08:29:01Z</time>
      </trkpt>
      <trkpt lat="49.04029" lon="7.68465">
        <ele>332.75</ele>
        <time>2017-05-03T08:29:25Z</time>
      </trkpt>
      <trkpt lat="49.04049" lon="7.68486">
        <ele>336.12</ele>
        <time>2017-05-03T08:29:47Z</time>
      </trkpt>
      <trkpt lat="49.04069" lon="7.6851">
        <ele>339.48</ele>
        <time>2017-05-03T08:30:12Z</time>
      </trkpt>
      <trkpt lat="49.04081" lon="7.68523">
        <ele>341.89</ele>
        <time>2017-05-03T08:30:41Z</time>
      </trkpt>
      <trkpt lat="49.04088" lon="7.68552">
        <ele>344.77</ele>
        <time>2017-05-03T08:31:01Z</time>
      </trkpt>
      <trkpt lat="49.04105" lon="7.68567">
        <ele>347.65</ele>
        <time>2017-05-03T08:31:20Z</time>
      </trkpt>
      <trkpt lat="49.04118" lon="7.68591">
        <ele>352.46</ele>
        <time>2017-05-03T08:31:52Z</time>
      </trkpt>
      <trkpt lat="49.0413" lon="7.68612">
        <ele>353.9</ele>
        <time>2017-05-03T08:33:50Z</time>
      </trkpt>
      <trkpt lat="49.04131" lon="7.68635">
        <ele>356.31</ele>
        <time>2017-05-03T08:34:12Z</time>
      </trkpt>
      <trkpt lat="49.04144" lon="7.68656">
        <ele>360.63</ele>
        <time>2017-05-03T08:34:32Z</time>
      </trkpt>
      <trkpt lat="49.04156" lon="7.68677">
        <ele>359.19</ele>
        <time>2017-05-03T08:35:02Z</time>
      </trkpt>
      <trkpt lat="49.04164" lon="7.68691">
        <ele>361.59</ele>
        <time>2017-05-03T08:35:15Z</time>
      </trkpt>
      <trkpt lat="49.04167" lon="7.68717">
        <ele>361.59</ele>
        <time>2017-05-03T08:35:34Z</time>
      </trkpt>
      <trkpt lat="49.0418" lon="7.68748">
        <ele>365.92</ele>
        <time>2017-05-03T08:36:02Z</time>
      </trkpt>
      <trkpt lat="49.04182" lon="7.68769">
        <ele>368.8</ele>
        <time>2017-05-03T08:36:21Z</time>
      </trkpt>
      <trkpt lat="49.0419" lon="7.68788">
        <ele>372.17</ele>
        <time>2017-05-03T08:36:40Z</time>
      </trkpt>
      <trkpt lat="49.042" lon="7.68809">
        <ele>374.57</ele>
        <time>2017-05-03T08:37:03Z</time>
      </trkpt>
      <trkpt lat="49.04201" lon="7.68826">
        <ele>376.01</ele>
        <time>2017-05-03T08:37:57Z</time>
      </trkpt>
      <trkpt lat="49.04205" lon="7.68839">
        <ele>376.49</ele>
        <time>2017-05-03T08:38:23Z</time>
      </trkpt>
      <trkpt lat="49.04202" lon="7.68868">
        <ele>375.05</ele>
        <time>2017-05-03T08:38:39Z</time>
      </trkpt>
      <trkpt lat="49.04207" lon="7.68893">
        <ele>378.9</ele>
        <time>2017-05-03T08:38:53Z</time>
      </trkpt>
      <trkpt lat="49.04217" lon="7.68904">
        <ele>378.9</ele>
        <time>2017-05-03T08:39:04Z</time>
      </trkpt>
      <trkpt lat="49.04225" lon="7.68921">
        <ele>379.86</ele>
        <time>2017-05-03T08:39:16Z</time>
      </trkpt>
      <trkpt lat="49.04241" lon="7.68942">
        <ele>380.34</ele>
        <time>2017-05-03T08:39:33Z</time>
      </trkpt>
      <trkpt lat="49.04258" lon="7.68957">
        <ele>381.78</ele>
        <time>2017-05-03T08:39:49Z</time>
      </trkpt>
      <trkpt lat="49.04258" lon="7.68971">
        <ele>383.22</ele>
        <time>2017-05-03T08:40:06Z</time>
      </trkpt>
      <trkpt lat="49.0425" lon="7.68982">
        <ele>383.22</ele>
        <time>2017-05-03T08:40:20Z</time>
      </trkpt>
      <trkpt lat="49.0424" lon="7.68991">
        <ele>382.74</ele>
        <time>2017-05-03T08:40:28Z</time>
      </trkpt>
      <trkpt lat="49.04231" lon="7.69001">
        <ele>383.22</ele>
        <time>2017-05-03T08:40:39Z</time>
      </trkpt>
      <trkpt lat="49.04221" lon="7.69009">
        <ele>382.74</ele>
        <time>2017-05-03T08:40:49Z</time>
      </trkpt>
      <trkpt lat="49.04208" lon="7.69018">
        <ele>382.26</ele>
        <time>2017-05-03T08:41:02Z</time>
      </trkpt>
      <trkpt lat="49.04197" lon="7.69023">
        <ele>381.3</ele>
        <time>2017-05-03T08:41:13Z</time>
      </trkpt>
      <trkpt lat="49.04182" lon="7.69035">
        <ele>380.82</ele>
        <time>2017-05-03T08:41:24Z</time>
      </trkpt>
      <trkpt lat="49.04172" lon="7.69048">
        <ele>380.34</ele>
        <time>2017-05-03T08:41:37Z</time>
      </trkpt>
      <trkpt lat="49.04179" lon="7.69055">
        <ele>377.94</ele>
        <time>2017-05-03T08:42:16Z</time>
      </trkpt>
      <trkpt lat="49.04174" lon="7.69072">
        <ele>374.09</ele>
        <time>2017-05-03T08:42:39Z</time>
      </trkpt>
      <trkpt lat="49.04174" lon="7.69091">
        <ele>369.28</ele>
        <time>2017-05-03T08:42:57Z</time>
      </trkpt>
      <trkpt lat="49.04171" lon="7.69099">
        <ele>366.88</ele>
        <time>2017-05-03T08:43:23Z</time>
      </trkpt>
      <trkpt lat="49.04168" lon="7.69097">
        <ele>368.32</ele>
        <time>2017-05-03T08:45:50Z</time>
      </trkpt>
      <trkpt lat="49.04163" lon="7.6911">
        <ele>366.88</ele>
        <time>2017-05-03T08:46:05Z</time>
      </trkpt>
      <trkpt lat="49.04157" lon="7.69126">
        <ele>361.11</ele>
        <time>2017-05-03T08:46:18Z</time>
      </trkpt>
      <trkpt lat="49.04153" lon="7.69141">
        <ele>359.19</ele>
        <time>2017-05-03T08:46:33Z</time>
      </trkpt>
      <trkpt lat="49.04141" lon="7.69159">
        <ele>357.75</ele>
        <time>2017-05-03T08:46:49Z</time>
      </trkpt>
      <trkpt lat="49.04139" lon="7.69181">
        <ele>355.34</ele>
        <time>2017-05-03T08:46:59Z</time>
      </trkpt>
      <trkpt lat="49.04142" lon="7.69202">
        <ele>352.46</ele>
        <time>2017-05-03T08:47:16Z</time>
      </trkpt>
      <trkpt lat="49.04143" lon="7.69218">
        <ele>349.1</ele>
        <time>2017-05-03T08:47:32Z</time>
      </trkpt>
      <trkpt lat="49.04143" lon="7.69233">
        <ele>348.13</ele>
        <time>2017-05-03T08:47:55Z</time>
      </trkpt>
      <trkpt lat="49.04142" lon="7.69245">
        <ele>345.73</ele>
        <time>2017-05-03T08:48:27Z</time>
      </trkpt>
      <trkpt lat="49.04146" lon="7.69262">
        <ele>343.33</ele>
        <time>2017-05-03T08:48:50Z</time>
      </trkpt>
      <trkpt lat="49.04145" lon="7.69269">
        <ele>342.37</ele>
        <time>2017-05-03T08:49:04Z</time>
      </trkpt>
      <trkpt lat="49.04142" lon="7.69288">
        <ele>338.52</ele>
        <time>2017-05-03T08:49:21Z</time>
      </trkpt>
      <trkpt lat="49.04145" lon="7.69304">
        <ele>337.56</ele>
        <time>2017-05-03T08:49:32Z</time>
      </trkpt>
      <trkpt lat="49.04142" lon="7.6932">
        <ele>335.64</ele>
        <time>2017-05-03T08:49:46Z</time>
      </trkpt>
      <trkpt lat="49.04139" lon="7.69346">
        <ele>334.2</ele>
        <time>2017-05-03T08:50:02Z</time>
      </trkpt>
      <trkpt lat="49.04142" lon="7.69364">
        <ele>332.27</ele>
        <time>2017-05-03T08:50:17Z</time>
      </trkpt>
      <trkpt lat="49.04144" lon="7.69379">
        <ele>330.35</ele>
        <time>2017-05-03T08:50:35Z</time>
      </trkpt>
      <trkpt lat="49.04139" lon="7.69388">
        <ele>328.91</ele>
        <time>2017-05-03T08:50:48Z</time>
      </trkpt>
      <trkpt lat="49.04136" lon="7.69401">
        <ele>326.5</ele>
        <time>2017-05-03T08:51:03Z</time>
      </trkpt>
      <trkpt lat="49.04134" lon="7.69422">
        <ele>323.14</ele>
        <time>2017-05-03T08:51:20Z</time>
      </trkpt>
      <trkpt lat="49.0413" lon="7.69437">
        <ele>320.74</ele>
        <time>2017-05-03T08:51:33Z</time>
      </trkpt>
      <trkpt lat="49.04124" lon="7.69445">
        <ele>318.81</ele>
        <time>2017-05-03T08:51:45Z</time>
      </trkpt>
      <trkpt lat="49.04113" lon="7.69451">
        <ele>316.41</ele>
        <time>2017-05-03T08:51:58Z</time>
      </trkpt>
      <trkpt lat="49.04103" lon="7.69457">
        <ele>314.97</ele>
        <time>2017-05-03T08:52:17Z</time>
      </trkpt>
      <trkpt lat="49.04094" lon="7.69469">
        <ele>312.57</ele>
        <time>2017-05-03T08:52:32Z</time>
      </trkpt>
      <trkpt lat="49.04078" lon="7.69476">
        <ele>310.64</ele>
        <time>2017-05-03T08:52:44Z</time>
      </trkpt>
      <trkpt lat="49.04069" lon="7.69475">
        <ele>310.64</ele>
        <time>2017-05-03T08:52:55Z</time>
      </trkpt>
      <trkpt lat="49.04061" lon="7.69477">
        <ele>308.72</ele>
        <time>2017-05-03T08:53:09Z</time>
      </trkpt>
      <trkpt lat="49.04048" lon="7.69474">
        <ele>305.36</ele>
        <time>2017-05-03T08:53:26Z</time>
      </trkpt>
      <trkpt lat="49.0404" lon="7.69466">
        <ele>303.91</ele>
        <time>2017-05-03T08:53:41Z</time>
      </trkpt>
      <trkpt lat="49.04025" lon="7.69462">
        <ele>302.47</ele>
        <time>2017-05-03T08:53:55Z</time>
      </trkpt>
      <trkpt lat="49.04006" lon="7.69464">
        <ele>299.59</ele>
        <time>2017-05-03T08:54:14Z</time>
      </trkpt>
      <trkpt lat="49.03995" lon="7.69463">
        <ele>299.11</ele>
        <time>2017-05-03T08:54:30Z</time>
      </trkpt>
      <trkpt lat="49.03977" lon="7.69457">
        <ele>296.7</ele>
        <time>2017-05-03T08:54:44Z</time>
      </trkpt>
      <trkpt lat="49.0396" lon="7.69446">
        <ele>293.82</ele>
        <time>2017-05-03T08:55:00Z</time>
      </trkpt>
      <trkpt lat="49.03948" lon="7.69438">
        <ele>292.86</ele>
        <time>2017-05-03T08:55:14Z</time>
      </trkpt>
      <trkpt lat="49.03933" lon="7.69421">
        <ele>290.94</ele>
        <time>2017-05-03T08:55:37Z</time>
      </trkpt>
      <trkpt lat="49.03922" lon="7.69401">
        <ele>288.05</ele>
        <time>2017-05-03T08:56:00Z</time>
      </trkpt>
      <trkpt lat="49.0391" lon="7.69386">
        <ele>286.61</ele>
        <time>2017-05-03T08:56:19Z</time>
      </trkpt>
      <trkpt lat="49.03892" lon="7.69371">
        <ele>283.73</ele>
        <time>2017-05-03T08:56:49Z</time>
      </trkpt>
      <trkpt lat="49.03892" lon="7.69362">
        <ele>282.77</ele>
        <time>2017-05-03T08:57:46Z</time>
      </trkpt>
      <trkpt lat="49.03877" lon="7.69358">
        <ele>279.4</ele>
        <time>2017-05-03T08:58:14Z</time>
      </trkpt>
      <trkpt lat="49.03882" lon="7.69375">
        <ele>278.92</ele>
        <time>2017-05-03T08:58:37Z</time>
      </trkpt>
      <trkpt lat="49.03887" lon="7.69391">
        <ele>276.04</ele>
        <time>2017-05-03T08:59:01Z</time>
      </trkpt>
      <trkpt lat="49.03887" lon="7.69413">
        <ele>274.11</ele>
        <time>2017-05-03T08:59:16Z</time>
      </trkpt>
      <trkpt lat="49.03889" lon="7.69428">
        <ele>274.11</ele>
        <time>2017-05-03T08:59:44Z</time>
      </trkpt>
      <trkpt lat="49.03901" lon="7.69454">
        <ele>274.11</ele>
        <time>2017-05-03T08:59:56Z</time>
      </trkpt>
      <trkpt lat="49.03909" lon="7.69468">
        <ele>274.11</ele>
        <time>2017-05-03T09:00:07Z</time>
      </trkpt>
      <trkpt lat="49.03918" lon="7.69485">
        <ele>274.11</ele>
        <time>2017-05-03T09:00:18Z</time>
      </trkpt>
      <trkpt lat="49.03925" lon="7.69504">
        <ele>274.59</ele>
        <time>2017-05-03T09:00:30Z</time>
      </trkpt>
      <trkpt lat="49.03937" lon="7.69517">
        <ele>275.56</ele>
        <time>2017-05-03T09:00:45Z</time>
      </trkpt>
      <trkpt lat="49.03947" lon="7.69533">
        <ele>274.59</ele>
        <time>2017-05-03T09:01:00Z</time>
      </trkpt>
      <trkpt lat="49.0395" lon="7.69548">
        <ele>272.19</ele>
        <time>2017-05-03T09:01:22Z</time>
      </trkpt>
      <trkpt lat="49.03951" lon="7.6957">
        <ele>268.83</ele>
        <time>2017-05-03T09:01:35Z</time>
      </trkpt>
      <trkpt lat="49.03952" lon="7.69593">
        <ele>266.42</ele>
        <time>2017-05-03T09:01:50Z</time>
      </trkpt>
      <trkpt lat="49.03954" lon="7.69613">
        <ele>264.5</ele>
        <time>2017-05-03T09:02:03Z</time>
      </trkpt>
      <trkpt lat="49.03949" lon="7.69623">
        <ele>264.02</ele>
        <time>2017-05-03T09:02:13Z</time>
      </trkpt>
      <trkpt lat="49.03947" lon="7.69638">
        <ele>262.58</ele>
        <time>2017-05-03T09:02:24Z</time>
      </trkpt>
      <trkpt lat="49.03947" lon="7.69654">
        <ele>261.14</ele>
        <time>2017-05-03T09:02:35Z</time>
      </trkpt>
      <trkpt lat="49.03947" lon="7.69663">
        <ele>258.73</ele>
        <time>2017-05-03T09:02:59Z</time>
      </trkpt>
      <trkpt lat="49.03945" lon="7.69681">
        <ele>255.37</ele>
        <time>2017-05-03T09:03:14Z</time>
      </trkpt>
      <trkpt lat="49.03954" lon="7.69706">
        <ele>250.56</ele>
        <time>2017-05-03T09:03:31Z</time>
      </trkpt>
      <trkpt lat="49.03968" lon="7.69729">
        <ele>248.64</ele>
        <time>2017-05-03T09:03:45Z</time>
      </trkpt>
      <trkpt lat="49.03984" lon="7.6974">
        <ele>248.16</ele>
        <time>2017-05-03T09:04:04Z</time>
      </trkpt>
      <trkpt lat="49.03997" lon="7.69751">
        <ele>247.68</ele>
        <time>2017-05-03T09:04:30Z</time>
      </trkpt>
      <trkpt lat="49.03998" lon="7.69758">
        <ele>249.12</ele>
        <time>2017-05-03T09:04:53Z</time>
      </trkpt>
      <trkpt lat="49.03998" lon="7.69758">
        <ele>251.04</ele>
        <time>2017-05-03T09:05:13Z</time>
      </trkpt>
      <trkpt lat="49.04009" lon="7.69775">
        <ele>252.48</ele>
        <time>2017-05-03T09:05:28Z</time>
      </trkpt>
      <trkpt lat="49.04032" lon="7.69781">
        <ele>253.93</ele>
        <time>2017-05-03T09:05:44Z</time>
      </trkpt>
      <trkpt lat="49.04051" lon="7.69786">
        <ele>254.89</ele>
        <time>2017-05-03T09:05:54Z</time>
      </trkpt>
      <trkpt lat="49.04067" lon="7.69791">
        <ele>256.33</ele>
        <time>2017-05-03T09:06:08Z</time>
      </trkpt>
      <trkpt lat="49.04083" lon="7.69798">
        <ele>257.29</ele>
        <time>2017-05-03T09:06:21Z</time>
      </trkpt>
      <trkpt lat="49.04098" lon="7.69802">
        <ele>258.73</ele>
        <time>2017-05-03T09:06:35Z</time>
      </trkpt>
      <trkpt lat="49.04108" lon="7.69812">
        <ele>259.69</ele>
        <time>2017-05-03T09:06:49Z</time>
      </trkpt>
      <trkpt lat="49.04128" lon="7.69814">
        <ele>261.62</ele>
        <time>2017-05-03T09:07:07Z</time>
      </trkpt>
      <trkpt lat="49.0414" lon="7.69818">
        <ele>263.54</ele>
        <time>2017-05-03T09:07:18Z</time>
      </trkpt>
      <trkpt lat="49.04152" lon="7.69822">
        <ele>264.02</ele>
        <time>2017-05-03T09:07:29Z</time>
      </trkpt>
      <trkpt lat="49.04165" lon="7.69826">
        <ele>264.98</ele>
        <time>2017-05-03T09:07:41Z</time>
      </trkpt>
      <trkpt lat="49.04172" lon="7.69829">
        <ele>266.42</ele>
        <time>2017-05-03T09:08:16Z</time>
      </trkpt>
      <trkpt lat="49.04187" lon="7.69842">
        <ele>268.35</ele>
        <time>2017-05-03T09:08:37Z</time>
      </trkpt>
      <trkpt lat="49.04209" lon="7.6986">
        <ele>270.27</ele>
        <time>2017-05-03T09:08:59Z</time>
      </trkpt>
      <trkpt lat="49.04223" lon="7.69872">
        <ele>272.67</ele>
        <time>2017-05-03T09:09:20Z</time>
      </trkpt>
      <trkpt lat="49.04236" lon="7.6989">
        <ele>274.59</ele>
        <time>2017-05-03T09:09:45Z</time>
      </trkpt>
      <trkpt lat="49.04251" lon="7.6989">
        <ele>276.52</ele>
        <time>2017-05-03T09:10:01Z</time>
      </trkpt>
      <trkpt lat="49.04266" lon="7.699">
        <ele>278.44</ele>
        <time>2017-05-03T09:10:22Z</time>
      </trkpt>
      <trkpt lat="49.04276" lon="7.69911">
        <ele>278.92</ele>
        <time>2017-05-03T09:10:38Z</time>
      </trkpt>
      <trkpt lat="49.04293" lon="7.69924">
        <ele>281.8</ele>
        <time>2017-05-03T09:11:01Z</time>
      </trkpt>
      <trkpt lat="49.04306" lon="7.69935">
        <ele>283.25</ele>
        <time>2017-05-03T09:11:17Z</time>
      </trkpt>
      <trkpt lat="49.04313" lon="7.69941">
        <ele>282.77</ele>
        <time>2017-05-03T09:12:40Z</time>
      </trkpt>
      <trkpt lat="49.04318" lon="7.69949">
        <ele>282.28</ele>
        <time>2017-05-03T09:12:55Z</time>
      </trkpt>
      <trkpt lat="49.04328" lon="7.69972">
        <ele>283.73</ele>
        <time>2017-05-03T09:13:09Z</time>
      </trkpt>
      <trkpt lat="49.04342" lon="7.69975">
        <ele>287.09</ele>
        <time>2017-05-03T09:13:22Z</time>
      </trkpt>
      <trkpt lat="49.04354" lon="7.69985">
        <ele>284.69</ele>
        <time>2017-05-03T09:13:38Z</time>
      </trkpt>
      <trkpt lat="49.04361" lon="7.70002">
        <ele>288.05</ele>
        <time>2017-05-03T09:13:49Z</time>
      </trkpt>
      <trkpt lat="49.04365" lon="7.70014">
        <ele>288.05</ele>
        <time>2017-05-03T09:14:02Z</time>
      </trkpt>
      <trkpt lat="49.04373" lon="7.70018">
        <ele>288.53</ele>
        <time>2017-05-03T09:14:12Z</time>
      </trkpt>
      <trkpt lat="49.04386" lon="7.7002">
        <ele>291.42</ele>
        <time>2017-05-03T09:14:31Z</time>
      </trkpt>
      <trkpt lat="49.044" lon="7.70023">
        <ele>291.42</ele>
        <time>2017-05-03T09:14:52Z</time>
      </trkpt>
      <trkpt lat="49.04427" lon="7.70033">
        <ele>295.74</ele>
        <time>2017-05-03T09:15:19Z</time>
      </trkpt>
      <trkpt lat="49.04444" lon="7.70037">
        <ele>297.18</ele>
        <time>2017-05-03T09:15:38Z</time>
      </trkpt>
      <trkpt lat="49.04456" lon="7.70039">
        <ele>301.99</ele>
        <time>2017-05-03T09:15:57Z</time>
      </trkpt>
      <trkpt lat="49.04469" lon="7.7004">
        <ele>301.99</ele>
        <time>2017-05-03T09:16:20Z</time>
      </trkpt>
      <trkpt lat="49.04489" lon="7.70047">
        <ele>301.99</ele>
        <time>2017-05-03T09:16:46Z</time>
      </trkpt>
      <trkpt lat="49.04504" lon="7.70053">
        <ele>305.84</ele>
        <time>2017-05-03T09:17:00Z</time>
      </trkpt>
      <trkpt lat="49.04517" lon="7.7006">
        <ele>308.72</ele>
        <time>2017-05-03T09:17:13Z</time>
      </trkpt>
      <trkpt lat="49.04528" lon="7.7007">
        <ele>302.47</ele>
        <time>2017-05-03T09:17:26Z</time>
      </trkpt>
      <trkpt lat="49.04538" lon="7.70074">
        <ele>307.76</ele>
        <time>2017-05-03T09:17:38Z</time>
      </trkpt>
      <trkpt lat="49.04545" lon="7.7009">
        <ele>309.68</ele>
        <time>2017-05-03T09:17:55Z</time>
      </trkpt>
      <trkpt lat="49.04545" lon="7.70089">
        <ele>309.68</ele>
        <time>2017-05-03T09:19:30Z</time>
      </trkpt>
      <trkpt lat="49.04552" lon="7.70096">
        <ele>308.72</ele>
        <time>2017-05-03T09:19:40Z</time>
      </trkpt>
      <trkpt lat="49.04558" lon="7.70103">
        <ele>309.68</ele>
        <time>2017-05-03T09:19:50Z</time>
      </trkpt>
      <trkpt lat="49.04568" lon="7.70113">
        <ele>313.53</ele>
        <time>2017-05-03T09:20:01Z</time>
      </trkpt>
      <trkpt lat="49.04576" lon="7.70123">
        <ele>317.85</ele>
        <time>2017-05-03T09:20:13Z</time>
      </trkpt>
      <trkpt lat="49.04584" lon="7.70135">
        <ele>317.37</ele>
        <time>2017-05-03T09:20:27Z</time>
      </trkpt>
      <trkpt lat="49.04594" lon="7.7015">
        <ele>315.45</ele>
        <time>2017-05-03T09:20:40Z</time>
      </trkpt>
      <trkpt lat="49.04597" lon="7.70162">
        <ele>318.81</ele>
        <time>2017-05-03T09:21:11Z</time>
      </trkpt>
      <trkpt lat="49.04605" lon="7.70181">
        <ele>323.14</ele>
        <time>2017-05-03T09:21:24Z</time>
      </trkpt>
      <trkpt lat="49.04609" lon="7.70212">
        <ele>320.74</ele>
        <time>2017-05-03T09:21:40Z</time>
      </trkpt>
      <trkpt lat="49.04614" lon="7.70227">
        <ele>321.7</ele>
        <time>2017-05-03T09:21:52Z</time>
      </trkpt>
      <trkpt lat="49.04617" lon="7.70245">
        <ele>322.18</ele>
        <time>2017-05-03T09:22:04Z</time>
      </trkpt>
      <trkpt lat="49.04618" lon="7.70259">
        <ele>327.47</ele>
        <time>2017-05-03T09:22:18Z</time>
      </trkpt>
      <trkpt lat="49.04616" lon="7.70283">
        <ele>326.02</ele>
        <time>2017-05-03T09:22:34Z</time>
      </trkpt>
      <trkpt lat="49.04622" lon="7.70306">
        <ele>329.39</ele>
        <time>2017-05-03T09:22:49Z</time>
      </trkpt>
      <trkpt lat="49.04626" lon="7.70326">
        <ele>334.2</ele>
        <time>2017-05-03T09:23:04Z</time>
      </trkpt>
      <trkpt lat="49.04625" lon="7.70345">
        <ele>333.23</ele>
        <time>2017-05-03T09:23:20Z</time>
      </trkpt>
      <trkpt lat="49.0462" lon="7.70368">
        <ele>335.16</ele>
        <time>2017-05-03T09:23:36Z</time>
      </trkpt>
      <trkpt lat="49.0464" lon="7.7038">
        <ele>338.04</ele>
        <time>2017-05-03T09:24:07Z</time>
      </trkpt>
      <trkpt lat="49.04666" lon="7.70372">
        <ele>338.04</ele>
        <time>2017-05-03T09:24:38Z</time>
      </trkpt>
      <trkpt lat="49.04695" lon="7.70345">
        <ele>342.37</ele>
        <time>2017-05-03T09:25:05Z</time>
      </trkpt>
      <trkpt lat="49.04703" lon="7.70338">
        <ele>340.44</ele>
        <time>2017-05-03T09:27:14Z</time>
      </trkpt>
      <trkpt lat="49.04717" lon="7.70321">
        <ele>342.85</ele>
        <time>2017-05-03T09:27:35Z</time>
      </trkpt>
      <trkpt lat="49.04732" lon="7.70306">
        <ele>344.29</ele>
        <time>2017-05-03T09:28:00Z</time>
      </trkpt>
      <trkpt lat="49.04744" lon="7.70296">
        <ele>345.25</ele>
        <time>2017-05-03T09:28:20Z</time>
      </trkpt>
      <trkpt lat="49.04746" lon="7.70282">
        <ele>350.06</ele>
        <time>2017-05-03T09:28:38Z</time>
      </trkpt>
      <trkpt lat="49.0476" lon="7.70277">
        <ele>351.5</ele>
        <time>2017-05-03T09:29:10Z</time>
      </trkpt>
      <trkpt lat="49.04768" lon="7.70258">
        <ele>350.06</ele>
        <time>2017-05-03T09:29:27Z</time>
      </trkpt>
      <trkpt lat="49.0478" lon="7.70253">
        <ele>349.1</ele>
        <time>2017-05-03T09:30:04Z</time>
      </trkpt>
      <trkpt lat="49.04782" lon="7.70245">
        <ele>346.69</ele>
        <time>2017-05-03T09:31:03Z</time>
      </trkpt>
      <trkpt lat="49.04786" lon="7.70217">
        <ele>350.54</ele>
        <time>2017-05-03T09:32:22Z</time>
      </trkpt>
      <trkpt lat="49.04788" lon="7.70202">
        <ele>345.73</ele>
        <time>2017-05-03T09:32:40Z</time>
      </trkpt>
      <trkpt lat="49.0478" lon="7.702">
        <ele>343.81</ele>
        <time>2017-05-03T09:33:39Z</time>
      </trkpt>
      <trkpt lat="49.04775" lon="7.70188">
        <ele>349.58</ele>
        <time>2017-05-03T09:34:27Z</time>
      </trkpt>
      <trkpt lat="49.04772" lon="7.7018">
        <ele>350.54</ele>
        <time>2017-05-03T09:35:07Z</time>
      </trkpt>
      <trkpt lat="49.04785" lon="7.70164">
        <ele>360.63</ele>
        <time>2017-05-03T09:35:45Z</time>
      </trkpt>
      <trkpt lat="49.0479" lon="7.70173">
        <ele>364</ele>
        <time>2017-05-03T09:36:23Z</time>
      </trkpt>
      <trkpt lat="49.04795" lon="7.70173">
        <ele>407.74</ele>
        <time>2017-05-03T09:48:07Z</time>
      </trkpt>
      <trkpt lat="49.04784" lon="7.70123">
        <ele>355.34</ele>
        <time>2017-05-03T09:48:16Z</time>
      </trkpt>
      <trkpt lat="49.04782" lon="7.7015">
        <ele>361.59</ele>
        <time>2017-05-03T09:50:17Z</time>
      </trkpt>
      <trkpt lat="49.04776" lon="7.70162">
        <ele>357.75</ele>
        <time>2017-05-03T09:50:25Z</time>
      </trkpt>
      <trkpt lat="49.04769" lon="7.70174">
        <ele>360.63</ele>
        <time>2017-05-03T09:50:33Z</time>
      </trkpt>
      <trkpt lat="49.04763" lon="7.70186">
        <ele>360.15</ele>
        <time>2017-05-03T09:50:41Z</time>
      </trkpt>
      <trkpt lat="49.04762" lon="7.70188">
        <ele>358.71</ele>
        <time>2017-05-03T09:50:43Z</time>
      </trkpt>
      <trkpt lat="49.04788" lon="7.70107">
        <ele>357.75</ele>
        <time>2017-05-03T09:50:52Z</time>
      </trkpt>
      <trkpt lat="49.04768" lon="7.70157">
        <ele>339.48</ele>
        <time>2017-05-03T09:52:18Z</time>
      </trkpt>
      <trkpt lat="49.04762" lon="7.70191">
        <ele>337.56</ele>
        <time>2017-05-03T09:53:55Z</time>
      </trkpt>
      <trkpt lat="49.04765" lon="7.70186">
        <ele>334.68</ele>
        <time>2017-05-03T09:56:17Z</time>
      </trkpt>
      <trkpt lat="49.04767" lon="7.70164">
        <ele>339</ele>
        <time>2017-05-03T09:58:03Z</time>
      </trkpt>
      <trkpt lat="49.04779" lon="7.70149">
        <ele>340.44</ele>
        <time>2017-05-03T09:58:35Z</time>
      </trkpt>
      <trkpt lat="49.0478" lon="7.70138">
        <ele>342.37</ele>
        <time>2017-05-03T09:59:21Z</time>
      </trkpt>
      <trkpt lat="49.04776" lon="7.70117">
        <ele>340.92</ele>
        <time>2017-05-03T10:00:01Z</time>
      </trkpt>
      <trkpt lat="49.04779" lon="7.70104">
        <ele>334.2</ele>
        <time>2017-05-03T10:00:32Z</time>
      </trkpt>
      <trkpt lat="49.04779" lon="7.70112">
        <ele>340.92</ele>
        <time>2017-05-03T10:01:22Z</time>
      </trkpt>
      <trkpt lat="49.04774" lon="7.7013">
        <ele>339.48</ele>
        <time>2017-05-03T10:01:35Z</time>
      </trkpt>
      <trkpt lat="49.04774" lon="7.70144">
        <ele>343.33</ele>
        <time>2017-05-03T10:01:55Z</time>
      </trkpt>
      <trkpt lat="49.04773" lon="7.70164">
        <ele>338.04</ele>
        <time>2017-05-03T10:02:11Z</time>
      </trkpt>
      <trkpt lat="49.04762" lon="7.70185">
        <ele>335.64</ele>
        <time>2017-05-03T10:02:26Z</time>
      </trkpt>
      <trkpt lat="49.04751" lon="7.70199">
        <ele>336.12</ele>
        <time>2017-05-03T10:02:41Z</time>
      </trkpt>
      <trkpt lat="49.04755" lon="7.70192">
        <ele>330.35</ele>
        <time>2017-05-03T10:03:22Z</time>
      </trkpt>
      <trkpt lat="49.04761" lon="7.70156">
        <ele>329.39</ele>
        <time>2017-05-03T10:03:39Z</time>
      </trkpt>
      <trkpt lat="49.04767" lon="7.70138">
        <ele>329.87</ele>
        <time>2017-05-03T10:03:53Z</time>
      </trkpt>
      <trkpt lat="49.04774" lon="7.70112">
        <ele>330.83</ele>
        <time>2017-05-03T10:04:19Z</time>
      </trkpt>
      <trkpt lat="49.04777" lon="7.70082">
        <ele>314.97</ele>
        <time>2017-05-03T10:04:45Z</time>
      </trkpt>
      <trkpt lat="49.04781" lon="7.70079">
        <ele>316.41</ele>
        <time>2017-05-03T10:05:18Z</time>
      </trkpt>
      <trkpt lat="49.04786" lon="7.70077">
        <ele>319.3</ele>
        <time>2017-05-03T10:07:49Z</time>
      </trkpt>
      <trkpt lat="49.04792" lon="7.7008">
        <ele>323.62</ele>
        <time>2017-05-03T10:08:21Z</time>
      </trkpt>
      <trkpt lat="49.048" lon="7.70104">
        <ele>325.54</ele>
        <time>2017-05-03T10:08:39Z</time>
      </trkpt>
      <trkpt lat="49.04803" lon="7.70105">
        <ele>331.79</ele>
        <time>2017-05-03T10:09:28Z</time>
      </trkpt>
      <trkpt lat="49.048" lon="7.70109">
        <ele>334.68</ele>
        <time>2017-05-03T10:10:01Z</time>
      </trkpt>
      <trkpt lat="49.04791" lon="7.70128">
        <ele>336.12</ele>
        <time>2017-05-03T10:10:27Z</time>
      </trkpt>
      <trkpt lat="49.04788" lon="7.70139">
        <ele>341.41</ele>
        <time>2017-05-03T10:10:55Z</time>
      </trkpt>
      <trkpt lat="49.048" lon="7.7015">
        <ele>343.81</ele>
        <time>2017-05-03T10:11:27Z</time>
      </trkpt>
      <trkpt lat="49.04799" lon="7.70156">
        <ele>349.58</ele>
        <time>2017-05-03T10:11:50Z</time>
      </trkpt>
      <trkpt lat="49.04793" lon="7.70157">
        <ele>342.37</ele>
        <time>2017-05-03T10:12:21Z</time>
      </trkpt>
      <trkpt lat="49.04793" lon="7.70169">
        <ele>348.62</ele>
        <time>2017-05-03T10:12:51Z</time>
      </trkpt>
      <trkpt lat="49.04795" lon="7.70194">
        <ele>351.5</ele>
        <time>2017-05-03T10:13:22Z</time>
      </trkpt>
      <trkpt lat="49.04804" lon="7.70223">
        <ele>355.34</ele>
        <time>2017-05-03T10:13:41Z</time>
      </trkpt>
      <trkpt lat="49.04799" lon="7.70237">
        <ele>354.86</ele>
        <time>2017-05-03T10:14:03Z</time>
      </trkpt>
      <trkpt lat="49.04793" lon="7.70252">
        <ele>355.83</ele>
        <time>2017-05-03T10:14:20Z</time>
      </trkpt>
      <trkpt lat="49.04791" lon="7.70253">
        <ele>351.98</ele>
        <time>2017-05-03T10:15:08Z</time>
      </trkpt>
      <trkpt lat="49.04785" lon="7.70259">
        <ele>354.38</ele>
        <time>2017-05-03T10:15:48Z</time>
      </trkpt>
      <trkpt lat="49.04792" lon="7.70252">
        <ele>359.67</ele>
        <time>2017-05-03T10:16:42Z</time>
      </trkpt>
      <trkpt lat="49.04793" lon="7.70259">
        <ele>353.42</ele>
        <time>2017-05-03T10:47:38Z</time>
      </trkpt>
      <trkpt lat="49.048" lon="7.70254">
        <ele>352.46</ele>
        <time>2017-05-03T10:47:58Z</time>
      </trkpt>
      <trkpt lat="49.04811" lon="7.70262">
        <ele>353.9</ele>
        <time>2017-05-03T10:48:14Z</time>
      </trkpt>
      <trkpt lat="49.04816" lon="7.70275">
        <ele>355.83</ele>
        <time>2017-05-03T10:48:25Z</time>
      </trkpt>
      <trkpt lat="49.04821" lon="7.70291">
        <ele>358.71</ele>
        <time>2017-05-03T10:48:44Z</time>
      </trkpt>
      <trkpt lat="49.0482" lon="7.70289">
        <ele>358.23</ele>
        <time>2017-05-03T10:49:16Z</time>
      </trkpt>
      <trkpt lat="49.04817" lon="7.70271">
        <ele>355.34</ele>
        <time>2017-05-03T10:49:33Z</time>
      </trkpt>
      <trkpt lat="49.04807" lon="7.70262">
        <ele>352.46</ele>
        <time>2017-05-03T10:49:47Z</time>
      </trkpt>
      <trkpt lat="49.04794" lon="7.70262">
        <ele>352.94</ele>
        <time>2017-05-03T10:49:55Z</time>
      </trkpt>
      <trkpt lat="49.04783" lon="7.70253">
        <ele>351.98</ele>
        <time>2017-05-03T10:50:07Z</time>
      </trkpt>
      <trkpt lat="49.0477" lon="7.70256">
        <ele>350.06</ele>
        <time>2017-05-03T10:50:28Z</time>
      </trkpt>
      <trkpt lat="49.04761" lon="7.70271">
        <ele>351.02</ele>
        <time>2017-05-03T10:51:07Z</time>
      </trkpt>
      <trkpt lat="49.04754" lon="7.70297">
        <ele>353.42</ele>
        <time>2017-05-03T10:51:31Z</time>
      </trkpt>
      <trkpt lat="49.0474" lon="7.70312">
        <ele>354.86</ele>
        <time>2017-05-03T10:51:47Z</time>
      </trkpt>
      <trkpt lat="49.04727" lon="7.70324">
        <ele>356.31</ele>
        <time>2017-05-03T10:52:03Z</time>
      </trkpt>
      <trkpt lat="49.04716" lon="7.70336">
        <ele>357.27</ele>
        <time>2017-05-03T10:52:18Z</time>
      </trkpt>
      <trkpt lat="49.04715" lon="7.7035">
        <ele>360.15</ele>
        <time>2017-05-03T10:52:51Z</time>
      </trkpt>
      <trkpt lat="49.04711" lon="7.70379">
        <ele>363.04</ele>
        <time>2017-05-03T10:53:29Z</time>
      </trkpt>
      <trkpt lat="49.04703" lon="7.70401">
        <ele>365.92</ele>
        <time>2017-05-03T10:53:59Z</time>
      </trkpt>
      <trkpt lat="49.04697" lon="7.70423">
        <ele>368.32</ele>
        <time>2017-05-03T10:54:25Z</time>
      </trkpt>
      <trkpt lat="49.04677" lon="7.70462">
        <ele>371.69</ele>
        <time>2017-05-03T10:55:08Z</time>
      </trkpt>
      <trkpt lat="49.04666" lon="7.70484">
        <ele>372.65</ele>
        <time>2017-05-03T10:55:24Z</time>
      </trkpt>
      <trkpt lat="49.04657" lon="7.70499">
        <ele>375.05</ele>
        <time>2017-05-03T10:55:48Z</time>
      </trkpt>
      <trkpt lat="49.04646" lon="7.70518">
        <ele>376.97</ele>
        <time>2017-05-03T10:56:11Z</time>
      </trkpt>
      <trkpt lat="49.04624" lon="7.70538">
        <ele>381.3</ele>
        <time>2017-05-03T10:56:42Z</time>
      </trkpt>
      <trkpt lat="49.04609" lon="7.70549">
        <ele>382.74</ele>
        <time>2017-05-03T10:57:01Z</time>
      </trkpt>
      <trkpt lat="49.04595" lon="7.70557">
        <ele>384.66</ele>
        <time>2017-05-03T10:57:22Z</time>
      </trkpt>
      <trkpt lat="49.04586" lon="7.70576">
        <ele>386.11</ele>
        <time>2017-05-03T10:57:41Z</time>
      </trkpt>
      <trkpt lat="49.04587" lon="7.70585">
        <ele>386.59</ele>
        <time>2017-05-03T10:58:06Z</time>
      </trkpt>
      <trkpt lat="49.04591" lon="7.70599">
        <ele>385.63</ele>
        <time>2017-05-03T10:58:20Z</time>
      </trkpt>
      <trkpt lat="49.04601" lon="7.70611">
        <ele>385.63</ele>
        <time>2017-05-03T10:58:34Z</time>
      </trkpt>
      <trkpt lat="49.04612" lon="7.70613">
        <ele>388.03</ele>
        <time>2017-05-03T10:59:01Z</time>
      </trkpt>
      <trkpt lat="49.04623" lon="7.70606">
        <ele>388.99</ele>
        <time>2017-05-03T10:59:17Z</time>
      </trkpt>
      <trkpt lat="49.04616" lon="7.70592">
        <ele>389.95</ele>
        <time>2017-05-03T10:59:50Z</time>
      </trkpt>
      <trkpt lat="49.04615" lon="7.70592">
        <ele>391.39</ele>
        <time>2017-05-03T11:00:33Z</time>
      </trkpt>
      <trkpt lat="49.04609" lon="7.70586">
        <ele>385.15</ele>
        <time>2017-05-03T11:00:49Z</time>
      </trkpt>
      <trkpt lat="49.04601" lon="7.70586">
        <ele>384.66</ele>
        <time>2017-05-03T11:01:05Z</time>
      </trkpt>
      <trkpt lat="49.0459" lon="7.70582">
        <ele>385.15</ele>
        <time>2017-05-03T11:01:28Z</time>
      </trkpt>
      <trkpt lat="49.04578" lon="7.70572">
        <ele>387.07</ele>
        <time>2017-05-03T11:01:42Z</time>
      </trkpt>
      <trkpt lat="49.04568" lon="7.70579">
        <ele>390.91</ele>
        <time>2017-05-03T11:02:02Z</time>
      </trkpt>
      <trkpt lat="49.04564" lon="7.70601">
        <ele>392.84</ele>
        <time>2017-05-03T11:02:17Z</time>
      </trkpt>
      <trkpt lat="49.04556" lon="7.70616">
        <ele>392.36</ele>
        <time>2017-05-03T11:02:33Z</time>
      </trkpt>
      <trkpt lat="49.04545" lon="7.70621">
        <ele>389.47</ele>
        <time>2017-05-03T11:02:47Z</time>
      </trkpt>
      <trkpt lat="49.04528" lon="7.7065">
        <ele>395.24</ele>
        <time>2017-05-03T11:03:34Z</time>
      </trkpt>
      <trkpt lat="49.04519" lon="7.70677">
        <ele>399.57</ele>
        <time>2017-05-03T11:03:55Z</time>
      </trkpt>
      <trkpt lat="49.04502" lon="7.70696">
        <ele>401.49</ele>
        <time>2017-05-03T11:04:40Z</time>
      </trkpt>
      <trkpt lat="49.04488" lon="7.70714">
        <ele>401.01</ele>
        <time>2017-05-03T11:04:52Z</time>
      </trkpt>
      <trkpt lat="49.04468" lon="7.70728">
        <ele>402.45</ele>
        <time>2017-05-03T11:05:19Z</time>
      </trkpt>
      <trkpt lat="49.0445" lon="7.70749">
        <ele>398.12</ele>
        <time>2017-05-03T11:05:57Z</time>
      </trkpt>
      <trkpt lat="49.04427" lon="7.7076">
        <ele>399.57</ele>
        <time>2017-05-03T11:06:13Z</time>
      </trkpt>
      <trkpt lat="49.04421" lon="7.70765">
        <ele>400.05</ele>
        <time>2017-05-03T11:06:46Z</time>
      </trkpt>
      <trkpt lat="49.04414" lon="7.7079">
        <ele>398.6</ele>
        <time>2017-05-03T11:06:58Z</time>
      </trkpt>
      <trkpt lat="49.0441" lon="7.70799">
        <ele>399.08</ele>
        <time>2017-05-03T11:07:11Z</time>
      </trkpt>
      <trkpt lat="49.04404" lon="7.7081">
        <ele>399.08</ele>
        <time>2017-05-03T11:07:31Z</time>
      </trkpt>
      <trkpt lat="49.04393" lon="7.70828">
        <ele>399.08</ele>
        <time>2017-05-03T11:07:42Z</time>
      </trkpt>
      <trkpt lat="49.04388" lon="7.70844">
        <ele>399.08</ele>
        <time>2017-05-03T11:07:53Z</time>
      </trkpt>
      <trkpt lat="49.04388" lon="7.70861">
        <ele>396.2</ele>
        <time>2017-05-03T11:08:06Z</time>
      </trkpt>
      <trkpt lat="49.04387" lon="7.70881">
        <ele>401.01</ele>
        <time>2017-05-03T11:08:18Z</time>
      </trkpt>
      <trkpt lat="49.04384" lon="7.70899">
        <ele>399.08</ele>
        <time>2017-05-03T11:08:28Z</time>
      </trkpt>
      <trkpt lat="49.04381" lon="7.70915">
        <ele>399.57</ele>
        <time>2017-05-03T11:08:43Z</time>
      </trkpt>
      <trkpt lat="49.04381" lon="7.70942">
        <ele>399.57</ele>
        <time>2017-05-03T11:08:57Z</time>
      </trkpt>
      <trkpt lat="49.04386" lon="7.70949">
        <ele>402.93</ele>
        <time>2017-05-03T11:11:42Z</time>
      </trkpt>
      <trkpt lat="49.04391" lon="7.70969">
        <ele>402.45</ele>
        <time>2017-05-03T11:12:01Z</time>
      </trkpt>
      <trkpt lat="49.04393" lon="7.70987">
        <ele>406.29</ele>
        <time>2017-05-03T11:12:24Z</time>
      </trkpt>
      <trkpt lat="49.04391" lon="7.71013">
        <ele>406.77</ele>
        <time>2017-05-03T11:12:55Z</time>
      </trkpt>
      <trkpt lat="49.04392" lon="7.71058">
        <ele>410.62</ele>
        <time>2017-05-03T11:13:16Z</time>
      </trkpt>
      <trkpt lat="49.0439" lon="7.71094">
        <ele>413.02</ele>
        <time>2017-05-03T11:13:40Z</time>
      </trkpt>
      <trkpt lat="49.04391" lon="7.71113">
        <ele>414.95</ele>
        <time>2017-05-03T11:14:02Z</time>
      </trkpt>
      <trkpt lat="49.04391" lon="7.71141">
        <ele>416.87</ele>
        <time>2017-05-03T11:14:19Z</time>
      </trkpt>
      <trkpt lat="49.04392" lon="7.71167">
        <ele>418.79</ele>
        <time>2017-05-03T11:14:47Z</time>
      </trkpt>
      <trkpt lat="49.04391" lon="7.71191">
        <ele>420.71</ele>
        <time>2017-05-03T11:15:05Z</time>
      </trkpt>
      <trkpt lat="49.04384" lon="7.71217">
        <ele>423.12</ele>
        <time>2017-05-03T11:15:28Z</time>
      </trkpt>
      <trkpt lat="49.0438" lon="7.71234">
        <ele>425.52</ele>
        <time>2017-05-03T11:15:43Z</time>
      </trkpt>
      <trkpt lat="49.04371" lon="7.71257">
        <ele>426</ele>
        <time>2017-05-03T11:16:01Z</time>
      </trkpt>
      <trkpt lat="49.04365" lon="7.71269">
        <ele>428.4</ele>
        <time>2017-05-03T11:16:28Z</time>
      </trkpt>
      <trkpt lat="49.04354" lon="7.71292">
        <ele>431.29</ele>
        <time>2017-05-03T11:16:59Z</time>
      </trkpt>
      <trkpt lat="49.04352" lon="7.71324">
        <ele>434.65</ele>
        <time>2017-05-03T11:17:25Z</time>
      </trkpt>
      <trkpt lat="49.04345" lon="7.71371">
        <ele>433.69</ele>
        <time>2017-05-03T11:17:40Z</time>
      </trkpt>
      <trkpt lat="49.04341" lon="7.71374">
        <ele>436.1</ele>
        <time>2017-05-03T11:18:20Z</time>
      </trkpt>
      <trkpt lat="49.04344" lon="7.71389">
        <ele>435.61</ele>
        <time>2017-05-03T11:19:08Z</time>
      </trkpt>
      <trkpt lat="49.04339" lon="7.71407">
        <ele>438.5</ele>
        <time>2017-05-03T11:19:30Z</time>
      </trkpt>
      <trkpt lat="49.04341" lon="7.71433">
        <ele>430.33</ele>
        <time>2017-05-03T11:19:44Z</time>
      </trkpt>
      <trkpt lat="49.04346" lon="7.71423">
        <ele>443.31</ele>
        <time>2017-05-03T11:19:59Z</time>
      </trkpt>
      <trkpt lat="49.04336" lon="7.71428">
        <ele>444.27</ele>
        <time>2017-05-03T11:20:14Z</time>
      </trkpt>
      <trkpt lat="49.04331" lon="7.71431">
        <ele>449.07</ele>
        <time>2017-05-03T11:21:08Z</time>
      </trkpt>
      <trkpt lat="49.04347" lon="7.71397">
        <ele>452.44</ele>
        <time>2017-05-03T11:21:28Z</time>
      </trkpt>
      <trkpt lat="49.04345" lon="7.71433">
        <ele>454.84</ele>
        <time>2017-05-03T11:22:20Z</time>
      </trkpt>
      <trkpt lat="49.04345" lon="7.71423">
        <ele>451</ele>
        <time>2017-05-03T11:22:35Z</time>
      </trkpt>
      <trkpt lat="49.04332" lon="7.71417">
        <ele>444.27</ele>
        <time>2017-05-03T11:23:24Z</time>
      </trkpt>
      <trkpt lat="49.04335" lon="7.71437">
        <ele>438.5</ele>
        <time>2017-05-03T11:24:04Z</time>
      </trkpt>
      <trkpt lat="49.04342" lon="7.71462">
        <ele>442.34</ele>
        <time>2017-05-03T11:24:16Z</time>
      </trkpt>
      <trkpt lat="49.0435" lon="7.71467">
        <ele>439.94</ele>
        <time>2017-05-03T11:24:51Z</time>
      </trkpt>
      <trkpt lat="49.04347" lon="7.71462">
        <ele>433.69</ele>
        <time>2017-05-03T11:25:13Z</time>
      </trkpt>
      <trkpt lat="49.04352" lon="7.71468">
        <ele>433.69</ele>
        <time>2017-05-03T11:25:56Z</time>
      </trkpt>
      <trkpt lat="49.04354" lon="7.71497">
        <ele>432.25</ele>
        <time>2017-05-03T11:26:16Z</time>
      </trkpt>
      <trkpt lat="49.04362" lon="7.71516">
        <ele>431.77</ele>
        <time>2017-05-03T11:26:30Z</time>
      </trkpt>
      <trkpt lat="49.04368" lon="7.71531">
        <ele>426</ele>
        <time>2017-05-03T11:26:45Z</time>
      </trkpt>
      <trkpt lat="49.04374" lon="7.71554">
        <ele>428.89</ele>
        <time>2017-05-03T11:26:59Z</time>
      </trkpt>
      <trkpt lat="49.04382" lon="7.71581">
        <ele>425.52</ele>
        <time>2017-05-03T11:27:12Z</time>
      </trkpt>
      <trkpt lat="49.0439" lon="7.71595">
        <ele>422.16</ele>
        <time>2017-05-03T11:27:35Z</time>
      </trkpt>
      <trkpt lat="49.04399" lon="7.71607">
        <ele>427.92</ele>
        <time>2017-05-03T11:27:45Z</time>
      </trkpt>
      <trkpt lat="49.04407" lon="7.71626">
        <ele>421.68</ele>
        <time>2017-05-03T11:27:59Z</time>
      </trkpt>
      <trkpt lat="49.04417" lon="7.71652">
        <ele>418.79</ele>
        <time>2017-05-03T11:28:14Z</time>
      </trkpt>
      <trkpt lat="49.04421" lon="7.71669">
        <ele>420.23</ele>
        <time>2017-05-03T11:28:26Z</time>
      </trkpt>
      <trkpt lat="49.04426" lon="7.71687">
        <ele>421.68</ele>
        <time>2017-05-03T11:28:39Z</time>
      </trkpt>
      <trkpt lat="49.04429" lon="7.71705">
        <ele>411.1</ele>
        <time>2017-05-03T11:28:51Z</time>
      </trkpt>
      <trkpt lat="49.04434" lon="7.71726">
        <ele>416.87</ele>
        <time>2017-05-03T11:29:03Z</time>
      </trkpt>
      <trkpt lat="49.04445" lon="7.7174">
        <ele>413.02</ele>
        <time>2017-05-03T11:29:14Z</time>
      </trkpt>
      <trkpt lat="49.04443" lon="7.71759">
        <ele>413.5</ele>
        <time>2017-05-03T11:29:27Z</time>
      </trkpt>
      <trkpt lat="49.04442" lon="7.71774">
        <ele>413.5</ele>
        <time>2017-05-03T11:29:38Z</time>
      </trkpt>
      <trkpt lat="49.04445" lon="7.71788">
        <ele>414.47</ele>
        <time>2017-05-03T11:29:48Z</time>
      </trkpt>
      <trkpt lat="49.04446" lon="7.71804">
        <ele>414.95</ele>
        <time>2017-05-03T11:29:57Z</time>
      </trkpt>
      <trkpt lat="49.04448" lon="7.71821">
        <ele>414.47</ele>
        <time>2017-05-03T11:30:07Z</time>
      </trkpt>
      <trkpt lat="49.04449" lon="7.71836">
        <ele>415.43</ele>
        <time>2017-05-03T11:30:15Z</time>
      </trkpt>
      <trkpt lat="49.04448" lon="7.71851">
        <ele>415.43</ele>
        <time>2017-05-03T11:30:25Z</time>
      </trkpt>
      <trkpt lat="49.0445" lon="7.71867">
        <ele>415.91</ele>
        <time>2017-05-03T11:30:33Z</time>
      </trkpt>
      <trkpt lat="49.04453" lon="7.71886">
        <ele>415.91</ele>
        <time>2017-05-03T11:30:45Z</time>
      </trkpt>
      <trkpt lat="49.04456" lon="7.71904">
        <ele>416.87</ele>
        <time>2017-05-03T11:30:56Z</time>
      </trkpt>
      <trkpt lat="49.04455" lon="7.71925">
        <ele>416.87</ele>
        <time>2017-05-03T11:31:06Z</time>
      </trkpt>
      <trkpt lat="49.0445" lon="7.71944">
        <ele>417.35</ele>
        <time>2017-05-03T11:31:16Z</time>
      </trkpt>
      <trkpt lat="49.04442" lon="7.71956">
        <ele>419.27</ele>
        <time>2017-05-03T11:31:27Z</time>
      </trkpt>
      <trkpt lat="49.04435" lon="7.71971">
        <ele>420.23</ele>
        <time>2017-05-03T11:31:39Z</time>
      </trkpt>
      <trkpt lat="49.04429" lon="7.71992">
        <ele>416.87</ele>
        <time>2017-05-03T11:31:51Z</time>
      </trkpt>
      <trkpt lat="49.04421" lon="7.72006">
        <ele>413.5</ele>
        <time>2017-05-03T11:32:00Z</time>
      </trkpt>
      <trkpt lat="49.04414" lon="7.7202">
        <ele>418.79</ele>
        <time>2017-05-03T11:32:09Z</time>
      </trkpt>
      <trkpt lat="49.04408" lon="7.72034">
        <ele>422.64</ele>
        <time>2017-05-03T11:32:20Z</time>
      </trkpt>
      <trkpt lat="49.04401" lon="7.72049">
        <ele>414.47</ele>
        <time>2017-05-03T11:32:30Z</time>
      </trkpt>
      <trkpt lat="49.04391" lon="7.72064">
        <ele>419.27</ele>
        <time>2017-05-03T11:32:40Z</time>
      </trkpt>
      <trkpt lat="49.04381" lon="7.72075">
        <ele>419.75</ele>
        <time>2017-05-03T11:32:48Z</time>
      </trkpt>
      <trkpt lat="49.0437" lon="7.72085">
        <ele>424.56</ele>
        <time>2017-05-03T11:32:58Z</time>
      </trkpt>
      <trkpt lat="49.04362" lon="7.72097">
        <ele>424.56</ele>
        <time>2017-05-03T11:33:06Z</time>
      </trkpt>
      <trkpt lat="49.04354" lon="7.7211">
        <ele>422.16</ele>
        <time>2017-05-03T11:33:14Z</time>
      </trkpt>
      <trkpt lat="49.04347" lon="7.72121">
        <ele>417.35</ele>
        <time>2017-05-03T11:33:23Z</time>
      </trkpt>
      <trkpt lat="49.04339" lon="7.7213">
        <ele>422.16</ele>
        <time>2017-05-03T11:33:32Z</time>
      </trkpt>
      <trkpt lat="49.04331" lon="7.72147">
        <ele>421.68</ele>
        <time>2017-05-03T11:33:50Z</time>
      </trkpt>
      <trkpt lat="49.04324" lon="7.72153">
        <ele>421.19</ele>
        <time>2017-05-03T11:34:01Z</time>
      </trkpt>
      <trkpt lat="49.04314" lon="7.72166">
        <ele>425.04</ele>
        <time>2017-05-03T11:34:12Z</time>
      </trkpt>
      <trkpt lat="49.04308" lon="7.72183">
        <ele>424.08</ele>
        <time>2017-05-03T11:34:25Z</time>
      </trkpt>
      <trkpt lat="49.04302" lon="7.72188">
        <ele>423.12</ele>
        <time>2017-05-03T11:34:45Z</time>
      </trkpt>
      <trkpt lat="49.04288" lon="7.72186">
        <ele>421.68</ele>
        <time>2017-05-03T11:34:55Z</time>
      </trkpt>
      <trkpt lat="49.04269" lon="7.72193">
        <ele>419.27</ele>
        <time>2017-05-03T11:35:08Z</time>
      </trkpt>
      <trkpt lat="49.04259" lon="7.72201">
        <ele>417.83</ele>
        <time>2017-05-03T11:35:19Z</time>
      </trkpt>
      <trkpt lat="49.04246" lon="7.72208">
        <ele>415.43</ele>
        <time>2017-05-03T11:35:35Z</time>
      </trkpt>
      <trkpt lat="49.04231" lon="7.72213">
        <ele>406.29</ele>
        <time>2017-05-03T11:35:50Z</time>
      </trkpt>
      <trkpt lat="49.04211" lon="7.72219">
        <ele>409.18</ele>
        <time>2017-05-03T11:36:06Z</time>
      </trkpt>
      <trkpt lat="49.04197" lon="7.72228">
        <ele>411.58</ele>
        <time>2017-05-03T11:36:20Z</time>
      </trkpt>
      <trkpt lat="49.0418" lon="7.72232">
        <ele>411.1</ele>
        <time>2017-05-03T11:36:32Z</time>
      </trkpt>
      <trkpt lat="49.04164" lon="7.72241">
        <ele>404.37</ele>
        <time>2017-05-03T11:36:46Z</time>
      </trkpt>
      <trkpt lat="49.0415" lon="7.72243">
        <ele>400.53</ele>
        <time>2017-05-03T11:36:58Z</time>
      </trkpt>
      <trkpt lat="49.04133" lon="7.72244">
        <ele>410.14</ele>
        <time>2017-05-03T11:37:15Z</time>
      </trkpt>
      <trkpt lat="49.04114" lon="7.72241">
        <ele>398.6</ele>
        <time>2017-05-03T11:37:35Z</time>
      </trkpt>
      <trkpt lat="49.04116" lon="7.72245">
        <ele>397.16</ele>
        <time>2017-05-03T11:38:07Z</time>
      </trkpt>
      <trkpt lat="49.04098" lon="7.72248">
        <ele>398.12</ele>
        <time>2017-05-03T11:38:25Z</time>
      </trkpt>
      <trkpt lat="49.04083" lon="7.72244">
        <ele>398.6</ele>
        <time>2017-05-03T11:38:40Z</time>
      </trkpt>
      <trkpt lat="49.04068" lon="7.72251">
        <ele>397.16</ele>
        <time>2017-05-03T11:38:49Z</time>
      </trkpt>
      <trkpt lat="49.0406" lon="7.72257">
        <ele>393.8</ele>
        <time>2017-05-03T11:38:59Z</time>
      </trkpt>
      <trkpt lat="49.0406" lon="7.72271">
        <ele>399.57</ele>
        <time>2017-05-03T11:39:09Z</time>
      </trkpt>
      <trkpt lat="49.04062" lon="7.72286">
        <ele>397.64</ele>
        <time>2017-05-03T11:39:20Z</time>
      </trkpt>
      <trkpt lat="49.04064" lon="7.72306">
        <ele>392.84</ele>
        <time>2017-05-03T11:39:30Z</time>
      </trkpt>
      <trkpt lat="49.04068" lon="7.72323">
        <ele>389.47</ele>
        <time>2017-05-03T11:39:39Z</time>
      </trkpt>
      <trkpt lat="49.04076" lon="7.72344">
        <ele>387.55</ele>
        <time>2017-05-03T11:39:49Z</time>
      </trkpt>
      <trkpt lat="49.04076" lon="7.72369">
        <ele>389.95</ele>
        <time>2017-05-03T11:39:58Z</time>
      </trkpt>
      <trkpt lat="49.0408" lon="7.72389">
        <ele>390.43</ele>
        <time>2017-05-03T11:40:07Z</time>
      </trkpt>
      <trkpt lat="49.04085" lon="7.72407">
        <ele>389.47</ele>
        <time>2017-05-03T11:40:16Z</time>
      </trkpt>
      <trkpt lat="49.04087" lon="7.72422">
        <ele>391.39</ele>
        <time>2017-05-03T11:40:24Z</time>
      </trkpt>
      <trkpt lat="49.04089" lon="7.72437">
        <ele>385.15</ele>
        <time>2017-05-03T11:40:35Z</time>
      </trkpt>
      <trkpt lat="49.04088" lon="7.72457">
        <ele>386.11</ele>
        <time>2017-05-03T11:40:45Z</time>
      </trkpt>
      <trkpt lat="49.04091" lon="7.72472">
        <ele>388.99</ele>
        <time>2017-05-03T11:40:55Z</time>
      </trkpt>
      <trkpt lat="49.04099" lon="7.72485">
        <ele>385.63</ele>
        <time>2017-05-03T11:41:05Z</time>
      </trkpt>
      <trkpt lat="49.04105" lon="7.72509">
        <ele>385.63</ele>
        <time>2017-05-03T11:41:15Z</time>
      </trkpt>
      <trkpt lat="49.04111" lon="7.72525">
        <ele>381.78</ele>
        <time>2017-05-03T11:41:26Z</time>
      </trkpt>
      <trkpt lat="49.04111" lon="7.72545">
        <ele>377.94</ele>
        <time>2017-05-03T11:41:36Z</time>
      </trkpt>
      <trkpt lat="49.04112" lon="7.72564">
        <ele>380.34</ele>
        <time>2017-05-03T11:41:45Z</time>
      </trkpt>
      <trkpt lat="49.04111" lon="7.72582">
        <ele>379.38</ele>
        <time>2017-05-03T11:41:55Z</time>
      </trkpt>
      <trkpt lat="49.04109" lon="7.72599">
        <ele>380.82</ele>
        <time>2017-05-03T11:42:03Z</time>
      </trkpt>
      <trkpt lat="49.04108" lon="7.72616">
        <ele>379.86</ele>
        <time>2017-05-03T11:42:11Z</time>
      </trkpt>
      <trkpt lat="49.04107" lon="7.72632">
        <ele>379.86</ele>
        <time>2017-05-03T11:42:20Z</time>
      </trkpt>
      <trkpt lat="49.04107" lon="7.72652">
        <ele>379.86</ele>
        <time>2017-05-03T11:42:30Z</time>
      </trkpt>
      <trkpt lat="49.04108" lon="7.72674">
        <ele>377.94</ele>
        <time>2017-05-03T11:42:39Z</time>
      </trkpt>
      <trkpt lat="49.04108" lon="7.72692">
        <ele>376.49</ele>
        <time>2017-05-03T11:42:48Z</time>
      </trkpt>
      <trkpt lat="49.04109" lon="7.72709">
        <ele>370.24</ele>
        <time>2017-05-03T11:42:58Z</time>
      </trkpt>
      <trkpt lat="49.04108" lon="7.7273">
        <ele>369.76</ele>
        <time>2017-05-03T11:43:09Z</time>
      </trkpt>
      <trkpt lat="49.0411" lon="7.7275">
        <ele>367.84</ele>
        <time>2017-05-03T11:43:20Z</time>
      </trkpt>
      <trkpt lat="49.04115" lon="7.72773">
        <ele>369.28</ele>
        <time>2017-05-03T11:43:31Z</time>
      </trkpt>
      <trkpt lat="49.04122" lon="7.7279">
        <ele>368.32</ele>
        <time>2017-05-03T11:43:42Z</time>
      </trkpt>
      <trkpt lat="49.04122" lon="7.72816">
        <ele>364</ele>
        <time>2017-05-03T11:43:52Z</time>
      </trkpt>
      <trkpt lat="49.04127" lon="7.72834">
        <ele>365.92</ele>
        <time>2017-05-03T11:44:01Z</time>
      </trkpt>
      <trkpt lat="49.04131" lon="7.72852">
        <ele>367.36</ele>
        <time>2017-05-03T11:44:10Z</time>
      </trkpt>
      <trkpt lat="49.04137" lon="7.72867">
        <ele>366.4</ele>
        <time>2017-05-03T11:44:20Z</time>
      </trkpt>
      <trkpt lat="49.04145" lon="7.72883">
        <ele>366.4</ele>
        <time>2017-05-03T11:44:29Z</time>
      </trkpt>
      <trkpt lat="49.04152" lon="7.72902">
        <ele>363.04</ele>
        <time>2017-05-03T11:44:39Z</time>
      </trkpt>
      <trkpt lat="49.04161" lon="7.72912">
        <ele>359.19</ele>
        <time>2017-05-03T11:44:50Z</time>
      </trkpt>
      <trkpt lat="49.04169" lon="7.72929">
        <ele>358.71</ele>
        <time>2017-05-03T11:44:59Z</time>
      </trkpt>
      <trkpt lat="49.04177" lon="7.72945">
        <ele>357.27</ele>
        <time>2017-05-03T11:45:07Z</time>
      </trkpt>
      <trkpt lat="49.04187" lon="7.7297">
        <ele>356.31</ele>
        <time>2017-05-03T11:45:17Z</time>
      </trkpt>
      <trkpt lat="49.04197" lon="7.72977">
        <ele>355.83</ele>
        <time>2017-05-03T11:45:27Z</time>
      </trkpt>
      <trkpt lat="49.04206" lon="7.72982">
        <ele>357.75</ele>
        <time>2017-05-03T11:45:35Z</time>
      </trkpt>
      <trkpt lat="49.04217" lon="7.72988">
        <ele>356.79</ele>
        <time>2017-05-03T11:45:44Z</time>
      </trkpt>
      <trkpt lat="49.04228" lon="7.72993">
        <ele>356.31</ele>
        <time>2017-05-03T11:45:52Z</time>
      </trkpt>
      <trkpt lat="49.04237" lon="7.73001">
        <ele>354.38</ele>
        <time>2017-05-03T11:46:00Z</time>
      </trkpt>
      <trkpt lat="49.04243" lon="7.7301">
        <ele>355.34</ele>
        <time>2017-05-03T11:46:25Z</time>
      </trkpt>
      <trkpt lat="49.04253" lon="7.7302">
        <ele>354.86</ele>
        <time>2017-05-03T11:46:35Z</time>
      </trkpt>
      <trkpt lat="49.04256" lon="7.73024">
        <ele>354.86</ele>
        <time>2017-05-03T11:46:55Z</time>
      </trkpt>
      <trkpt lat="49.04246" lon="7.73025">
        <ele>353.9</ele>
        <time>2017-05-03T11:47:05Z</time>
      </trkpt>
      <trkpt lat="49.04234" lon="7.73033">
        <ele>352.94</ele>
        <time>2017-05-03T11:47:12Z</time>
      </trkpt>
      <trkpt lat="49.04222" lon="7.73048">
        <ele>353.42</ele>
        <time>2017-05-03T11:47:21Z</time>
      </trkpt>
      <trkpt lat="49.04213" lon="7.73059">
        <ele>351.98</ele>
        <time>2017-05-03T11:47:30Z</time>
      </trkpt>
      <trkpt lat="49.04206" lon="7.73068">
        <ele>351.5</ele>
        <time>2017-05-03T11:47:39Z</time>
      </trkpt>
      <trkpt lat="49.04192" lon="7.73075">
        <ele>351.5</ele>
        <time>2017-05-03T11:47:49Z</time>
      </trkpt>
      <trkpt lat="49.0418" lon="7.73079">
        <ele>350.54</ele>
        <time>2017-05-03T11:47:59Z</time>
      </trkpt>
      <trkpt lat="49.04167" lon="7.73083">
        <ele>350.54</ele>
        <time>2017-05-03T11:48:08Z</time>
      </trkpt>
      <trkpt lat="49.04147" lon="7.7309">
        <ele>350.06</ele>
        <time>2017-05-03T11:48:18Z</time>
      </trkpt>
      <trkpt lat="49.04132" lon="7.73096">
        <ele>349.58</ele>
        <time>2017-05-03T11:48:26Z</time>
      </trkpt>
      <trkpt lat="49.04118" lon="7.73101">
        <ele>349.1</ele>
        <time>2017-05-03T11:48:36Z</time>
      </trkpt>
      <trkpt lat="49.04106" lon="7.73103">
        <ele>348.62</ele>
        <time>2017-05-03T11:49:07Z</time>
      </trkpt>
      <trkpt lat="49.04094" lon="7.7311">
        <ele>348.62</ele>
        <time>2017-05-03T11:49:17Z</time>
      </trkpt>
      <trkpt lat="49.04082" lon="7.73116">
        <ele>347.65</ele>
        <time>2017-05-03T11:49:29Z</time>
      </trkpt>
      <trkpt lat="49.04067" lon="7.73126">
        <ele>349.58</ele>
        <time>2017-05-03T11:49:43Z</time>
      </trkpt>
      <trkpt lat="49.04058" lon="7.73136">
        <ele>350.54</ele>
        <time>2017-05-03T11:49:56Z</time>
      </trkpt>
      <trkpt lat="49.0404" lon="7.73138">
        <ele>351.02</ele>
        <time>2017-05-03T11:50:13Z</time>
      </trkpt>
      <trkpt lat="49.04023" lon="7.73142">
        <ele>351.5</ele>
        <time>2017-05-03T11:50:31Z</time>
      </trkpt>
      <trkpt lat="49.04006" lon="7.73151">
        <ele>351.98</ele>
        <time>2017-05-03T11:50:45Z</time>
      </trkpt>
      <trkpt lat="49.03988" lon="7.73156">
        <ele>351.98</ele>
        <time>2017-05-03T11:50:58Z</time>
      </trkpt>
      <trkpt lat="49.0397" lon="7.73157">
        <ele>352.94</ele>
        <time>2017-05-03T11:51:15Z</time>
      </trkpt>
      <trkpt lat="49.03953" lon="7.73161">
        <ele>352.94</ele>
        <time>2017-05-03T11:51:35Z</time>
      </trkpt>
      <trkpt lat="49.03934" lon="7.73162">
        <ele>352.46</ele>
        <time>2017-05-03T11:51:46Z</time>
      </trkpt>
      <trkpt lat="49.03919" lon="7.73168">
        <ele>353.42</ele>
        <time>2017-05-03T11:52:03Z</time>
      </trkpt>
      <trkpt lat="49.03907" lon="7.73172">
        <ele>354.38</ele>
        <time>2017-05-03T11:52:25Z</time>
      </trkpt>
      <trkpt lat="49.03897" lon="7.73174">
        <ele>354.86</ele>
        <time>2017-05-03T11:52:49Z</time>
      </trkpt>
      <trkpt lat="49.03877" lon="7.73171">
        <ele>354.38</ele>
        <time>2017-05-03T11:53:05Z</time>
      </trkpt>
      <trkpt lat="49.0386" lon="7.73166">
        <ele>354.38</ele>
        <time>2017-05-03T11:53:24Z</time>
      </trkpt>
      <trkpt lat="49.03841" lon="7.73166">
        <ele>354.86</ele>
        <time>2017-05-03T11:53:36Z</time>
      </trkpt>
      <trkpt lat="49.03824" lon="7.73169">
        <ele>355.34</ele>
        <time>2017-05-03T11:53:48Z</time>
      </trkpt>
      <trkpt lat="49.03806" lon="7.73168">
        <ele>355.83</ele>
        <time>2017-05-03T11:54:03Z</time>
      </trkpt>
      <trkpt lat="49.03787" lon="7.73171">
        <ele>356.31</ele>
        <time>2017-05-03T11:54:23Z</time>
      </trkpt>
      <trkpt lat="49.03772" lon="7.73174">
        <ele>357.27</ele>
        <time>2017-05-03T11:54:39Z</time>
      </trkpt>
      <trkpt lat="49.0376" lon="7.7318">
        <ele>357.75</ele>
        <time>2017-05-03T11:54:52Z</time>
      </trkpt>
      <trkpt lat="49.03744" lon="7.73182">
        <ele>358.71</ele>
        <time>2017-05-03T11:55:06Z</time>
      </trkpt>
      <trkpt lat="49.0373" lon="7.73186">
        <ele>359.19</ele>
        <time>2017-05-03T11:55:21Z</time>
      </trkpt>
      <trkpt lat="49.03719" lon="7.73188">
        <ele>359.19</ele>
        <time>2017-05-03T11:55:31Z</time>
      </trkpt>
      <trkpt lat="49.03707" lon="7.73189">
        <ele>359.67</ele>
        <time>2017-05-03T11:56:10Z</time>
      </trkpt>
      <trkpt lat="49.0369" lon="7.73195">
        <ele>361.11</ele>
        <time>2017-05-03T11:56:22Z</time>
      </trkpt>
      <trkpt lat="49.03676" lon="7.73198">
        <ele>362.07</ele>
        <time>2017-05-03T11:56:34Z</time>
      </trkpt>
      <trkpt lat="49.03661" lon="7.73208">
        <ele>363.04</ele>
        <time>2017-05-03T11:56:49Z</time>
      </trkpt>
      <trkpt lat="49.03645" lon="7.73216">
        <ele>362.55</ele>
        <time>2017-05-03T11:57:04Z</time>
      </trkpt>
      <trkpt lat="49.03636" lon="7.73231">
        <ele>364</ele>
        <time>2017-05-03T11:57:20Z</time>
      </trkpt>
      <trkpt lat="49.03629" lon="7.73242">
        <ele>363.04</ele>
        <time>2017-05-03T11:57:33Z</time>
      </trkpt>
      <trkpt lat="49.0362" lon="7.73257">
        <ele>363.52</ele>
        <time>2017-05-03T11:57:47Z</time>
      </trkpt>
      <trkpt lat="49.03604" lon="7.73263">
        <ele>364.48</ele>
        <time>2017-05-03T11:58:01Z</time>
      </trkpt>
      <trkpt lat="49.03583" lon="7.73261">
        <ele>366.4</ele>
        <time>2017-05-03T11:58:18Z</time>
      </trkpt>
      <trkpt lat="49.03568" lon="7.73258">
        <ele>367.36</ele>
        <time>2017-05-03T11:58:49Z</time>
      </trkpt>
      <trkpt lat="49.03543" lon="7.73267">
        <ele>368.8</ele>
        <time>2017-05-03T11:59:16Z</time>
      </trkpt>
      <trkpt lat="49.03514" lon="7.73261">
        <ele>369.76</ele>
        <time>2017-05-03T12:00:38Z</time>
      </trkpt>
      <trkpt lat="49.03491" lon="7.7326">
        <ele>370.73</ele>
        <time>2017-05-03T12:00:52Z</time>
      </trkpt>
      <trkpt lat="49.03473" lon="7.7326">
        <ele>371.21</ele>
        <time>2017-05-03T12:01:09Z</time>
      </trkpt>
      <trkpt lat="49.03453" lon="7.73262">
        <ele>372.17</ele>
        <time>2017-05-03T12:01:26Z</time>
      </trkpt>
      <trkpt lat="49.03435" lon="7.73267">
        <ele>373.61</ele>
        <time>2017-05-03T12:01:44Z</time>
      </trkpt>
      <trkpt lat="49.03422" lon="7.7327">
        <ele>374.09</ele>
        <time>2017-05-03T12:01:57Z</time>
      </trkpt>
      <trkpt lat="49.03407" lon="7.73271">
        <ele>376.01</ele>
        <time>2017-05-03T12:02:12Z</time>
      </trkpt>
      <trkpt lat="49.03387" lon="7.73276">
        <ele>376.97</ele>
        <time>2017-05-03T12:02:27Z</time>
      </trkpt>
      <trkpt lat="49.03378" lon="7.73288">
        <ele>376.97</ele>
        <time>2017-05-03T12:03:10Z</time>
      </trkpt>
      <trkpt lat="49.03372" lon="7.73296">
        <ele>378.42</ele>
        <time>2017-05-03T12:09:43Z</time>
      </trkpt>
      <trkpt lat="49.03362" lon="7.73302">
        <ele>378.42</ele>
        <time>2017-05-03T12:09:55Z</time>
      </trkpt>
      <trkpt lat="49.03348" lon="7.73314">
        <ele>378.9</ele>
        <time>2017-05-03T12:10:08Z</time>
      </trkpt>
      <trkpt lat="49.03343" lon="7.73334">
        <ele>379.38</ele>
        <time>2017-05-03T12:10:19Z</time>
      </trkpt>
      <trkpt lat="49.03339" lon="7.73351">
        <ele>378.9</ele>
        <time>2017-05-03T12:10:31Z</time>
      </trkpt>
      <trkpt lat="49.03339" lon="7.73369">
        <ele>378.9</ele>
        <time>2017-05-03T12:10:41Z</time>
      </trkpt>
      <trkpt lat="49.03337" lon="7.73388">
        <ele>379.38</ele>
        <time>2017-05-03T12:10:53Z</time>
      </trkpt>
      <trkpt lat="49.03335" lon="7.73409">
        <ele>379.38</ele>
        <time>2017-05-03T12:11:05Z</time>
      </trkpt>
      <trkpt lat="49.03333" lon="7.73433">
        <ele>379.86</ele>
        <time>2017-05-03T12:11:14Z</time>
      </trkpt>
      <trkpt lat="49.03333" lon="7.73455">
        <ele>380.34</ele>
        <time>2017-05-03T12:11:26Z</time>
      </trkpt>
      <trkpt lat="49.03333" lon="7.73471">
        <ele>380.34</ele>
        <time>2017-05-03T12:11:36Z</time>
      </trkpt>
      <trkpt lat="49.03335" lon="7.73488">
        <ele>379.86</ele>
        <time>2017-05-03T12:11:47Z</time>
      </trkpt>
      <trkpt lat="49.03339" lon="7.7351">
        <ele>379.38</ele>
        <time>2017-05-03T12:11:58Z</time>
      </trkpt>
      <trkpt lat="49.03343" lon="7.73529">
        <ele>379.86</ele>
        <time>2017-05-03T12:12:07Z</time>
      </trkpt>
      <trkpt lat="49.03346" lon="7.73542">
        <ele>379.86</ele>
        <time>2017-05-03T12:12:19Z</time>
      </trkpt>
      <trkpt lat="49.03342" lon="7.73544">
        <ele>379.38</ele>
        <time>2017-05-03T12:13:02Z</time>
      </trkpt>
      <trkpt lat="49.03337" lon="7.73558">
        <ele>376.01</ele>
        <time>2017-05-03T12:13:36Z</time>
      </trkpt>
      <trkpt lat="49.03341" lon="7.73577">
        <ele>374.09</ele>
        <time>2017-05-03T12:13:50Z</time>
      </trkpt>
      <trkpt lat="49.03344" lon="7.73592">
        <ele>373.13</ele>
        <time>2017-05-03T12:14:04Z</time>
      </trkpt>
      <trkpt lat="49.03353" lon="7.73606">
        <ele>372.17</ele>
        <time>2017-05-03T12:14:24Z</time>
      </trkpt>
      <trkpt lat="49.03361" lon="7.73621">
        <ele>372.65</ele>
        <time>2017-05-03T12:14:38Z</time>
      </trkpt>
      <trkpt lat="49.03372" lon="7.73636">
        <ele>365.44</ele>
        <time>2017-05-03T12:14:52Z</time>
      </trkpt>
      <trkpt lat="49.03388" lon="7.73645">
        <ele>366.4</ele>
        <time>2017-05-03T12:15:06Z</time>
      </trkpt>
      <trkpt lat="49.03397" lon="7.73631">
        <ele>364.96</ele>
        <time>2017-05-03T12:15:18Z</time>
      </trkpt>
      <trkpt lat="49.03405" lon="7.73627">
        <ele>363.04</ele>
        <time>2017-05-03T12:15:40Z</time>
      </trkpt>
      <trkpt lat="49.03416" lon="7.73624">
        <ele>361.59</ele>
        <time>2017-05-03T12:15:52Z</time>
      </trkpt>
      <trkpt lat="49.03426" lon="7.73621">
        <ele>360.63</ele>
        <time>2017-05-03T12:16:02Z</time>
      </trkpt>
      <trkpt lat="49.03438" lon="7.73629">
        <ele>360.15</ele>
        <time>2017-05-03T12:16:18Z</time>
      </trkpt>
      <trkpt lat="49.03455" lon="7.73636">
        <ele>360.63</ele>
        <time>2017-05-03T12:17:27Z</time>
      </trkpt>
      <trkpt lat="49.03472" lon="7.7364">
        <ele>361.59</ele>
        <time>2017-05-03T12:17:40Z</time>
      </trkpt>
      <trkpt lat="49.03484" lon="7.7364">
        <ele>356.79</ele>
        <time>2017-05-03T12:18:03Z</time>
      </trkpt>
      <trkpt lat="49.03498" lon="7.73645">
        <ele>356.31</ele>
        <time>2017-05-03T12:18:16Z</time>
      </trkpt>
      <trkpt lat="49.03511" lon="7.73648">
        <ele>354.38</ele>
        <time>2017-05-03T12:18:30Z</time>
      </trkpt>
      <trkpt lat="49.03524" lon="7.73645">
        <ele>359.67</ele>
        <time>2017-05-03T12:18:45Z</time>
      </trkpt>
      <trkpt lat="49.03539" lon="7.73653">
        <ele>360.15</ele>
        <time>2017-05-03T12:19:07Z</time>
      </trkpt>
      <trkpt lat="49.03557" lon="7.7366">
        <ele>361.11</ele>
        <time>2017-05-03T12:19:18Z</time>
      </trkpt>
      <trkpt lat="49.03565" lon="7.7366">
        <ele>355.83</ele>
        <time>2017-05-03T12:19:37Z</time>
      </trkpt>
      <trkpt lat="49.03582" lon="7.73663">
        <ele>356.79</ele>
        <time>2017-05-03T12:19:51Z</time>
      </trkpt>
      <trkpt lat="49.036" lon="7.73661">
        <ele>359.67</ele>
        <time>2017-05-03T12:20:06Z</time>
      </trkpt>
      <trkpt lat="49.03612" lon="7.73668">
        <ele>359.67</ele>
        <time>2017-05-03T12:20:17Z</time>
      </trkpt>
      <trkpt lat="49.03623" lon="7.73676">
        <ele>358.23</ele>
        <time>2017-05-03T12:20:32Z</time>
      </trkpt>
      <trkpt lat="49.03638" lon="7.73676">
        <ele>356.31</ele>
        <time>2017-05-03T12:20:47Z</time>
      </trkpt>
      <trkpt lat="49.03649" lon="7.73678">
        <ele>356.79</ele>
        <time>2017-05-03T12:21:02Z</time>
      </trkpt>
      <trkpt lat="49.03661" lon="7.7368">
        <ele>357.75</ele>
        <time>2017-05-03T12:21:15Z</time>
      </trkpt>
      <trkpt lat="49.0368" lon="7.73688">
        <ele>355.83</ele>
        <time>2017-05-03T12:21:35Z</time>
      </trkpt>
      <trkpt lat="49.0369" lon="7.73692">
        <ele>357.27</ele>
        <time>2017-05-03T12:22:24Z</time>
      </trkpt>
      <trkpt lat="49.03715" lon="7.73703">
        <ele>356.79</ele>
        <time>2017-05-03T12:22:35Z</time>
      </trkpt>
      <trkpt lat="49.0373" lon="7.73701">
        <ele>356.79</ele>
        <time>2017-05-03T12:22:48Z</time>
      </trkpt>
      <trkpt lat="49.03742" lon="7.73703">
        <ele>356.79</ele>
        <time>2017-05-03T12:23:00Z</time>
      </trkpt>
      <trkpt lat="49.03753" lon="7.73713">
        <ele>350.06</ele>
        <time>2017-05-03T12:23:13Z</time>
      </trkpt>
      <trkpt lat="49.03762" lon="7.73723">
        <ele>351.02</ele>
        <time>2017-05-03T12:23:23Z</time>
      </trkpt>
      <trkpt lat="49.03774" lon="7.7373">
        <ele>358.23</ele>
        <time>2017-05-03T12:23:36Z</time>
      </trkpt>
      <trkpt lat="49.03777" lon="7.73735">
        <ele>355.83</ele>
        <time>2017-05-03T12:23:56Z</time>
      </trkpt>
      <trkpt lat="49.0379" lon="7.73754">
        <ele>351.5</ele>
        <time>2017-05-03T12:24:09Z</time>
      </trkpt>
      <trkpt lat="49.03796" lon="7.73761">
        <ele>357.75</ele>
        <time>2017-05-03T12:24:28Z</time>
      </trkpt>
      <trkpt lat="49.03804" lon="7.7378">
        <ele>357.75</ele>
        <time>2017-05-03T12:24:49Z</time>
      </trkpt>
      <trkpt lat="49.0382" lon="7.73816">
        <ele>360.15</ele>
        <time>2017-05-03T12:25:08Z</time>
      </trkpt>
      <trkpt lat="49.0383" lon="7.73836">
        <ele>360.63</ele>
        <time>2017-05-03T12:25:23Z</time>
      </trkpt>
      <trkpt lat="49.03836" lon="7.73847">
        <ele>356.79</ele>
        <time>2017-05-03T12:25:37Z</time>
      </trkpt>
      <trkpt lat="49.03838" lon="7.73868">
        <ele>350.06</ele>
        <time>2017-05-03T12:25:53Z</time>
      </trkpt>
      <trkpt lat="49.03842" lon="7.73899">
        <ele>350.06</ele>
        <time>2017-05-03T12:26:16Z</time>
      </trkpt>
      <trkpt lat="49.03846" lon="7.73899">
        <ele>351.02</ele>
        <time>2017-05-03T12:26:47Z</time>
      </trkpt>
      <trkpt lat="49.03851" lon="7.73911">
        <ele>352.46</ele>
        <time>2017-05-03T12:28:22Z</time>
      </trkpt>
      <trkpt lat="49.03851" lon="7.73929">
        <ele>351.5</ele>
        <time>2017-05-03T12:28:45Z</time>
      </trkpt>
      <trkpt lat="49.03855" lon="7.73952">
        <ele>351.98</ele>
        <time>2017-05-03T12:28:59Z</time>
      </trkpt>
      <trkpt lat="49.03857" lon="7.73973">
        <ele>354.38</ele>
        <time>2017-05-03T12:29:22Z</time>
      </trkpt>
      <trkpt lat="49.0386" lon="7.73997">
        <ele>355.34</ele>
        <time>2017-05-03T12:29:39Z</time>
      </trkpt>
      <trkpt lat="49.0386" lon="7.74014">
        <ele>356.31</ele>
        <time>2017-05-03T12:29:53Z</time>
      </trkpt>
      <trkpt lat="49.0386" lon="7.74033">
        <ele>357.27</ele>
        <time>2017-05-03T12:30:06Z</time>
      </trkpt>
      <trkpt lat="49.03859" lon="7.74055">
        <ele>358.71</ele>
        <time>2017-05-03T12:30:19Z</time>
      </trkpt>
      <trkpt lat="49.0386" lon="7.74074">
        <ele>359.67</ele>
        <time>2017-05-03T12:30:40Z</time>
      </trkpt>
      <trkpt lat="49.03859" lon="7.74091">
        <ele>355.34</ele>
        <time>2017-05-03T12:31:00Z</time>
      </trkpt>
      <trkpt lat="49.03849" lon="7.74101">
        <ele>348.13</ele>
        <time>2017-05-03T12:32:13Z</time>
      </trkpt>
      <trkpt lat="49.03839" lon="7.74098">
        <ele>344.77</ele>
        <time>2017-05-03T12:32:41Z</time>
      </trkpt>
      <trkpt lat="49.03835" lon="7.74122">
        <ele>343.33</ele>
        <time>2017-05-03T12:33:00Z</time>
      </trkpt>
      <trkpt lat="49.03834" lon="7.74131">
        <ele>341.41</ele>
        <time>2017-05-03T12:34:29Z</time>
      </trkpt>
      <trkpt lat="49.03824" lon="7.74157">
        <ele>341.89</ele>
        <time>2017-05-03T12:34:52Z</time>
      </trkpt>
      <trkpt lat="49.03817" lon="7.74176">
        <ele>337.56</ele>
        <time>2017-05-03T12:35:18Z</time>
      </trkpt>
      <trkpt lat="49.03796" lon="7.74205">
        <ele>335.16</ele>
        <time>2017-05-03T12:35:38Z</time>
      </trkpt>
      <trkpt lat="49.03788" lon="7.74222">
        <ele>331.79</ele>
        <time>2017-05-03T12:35:55Z</time>
      </trkpt>
      <trkpt lat="49.03771" lon="7.7424">
        <ele>332.75</ele>
        <time>2017-05-03T12:36:21Z</time>
      </trkpt>
      <trkpt lat="49.0376" lon="7.74254">
        <ele>328.43</ele>
        <time>2017-05-03T12:36:56Z</time>
      </trkpt>
      <trkpt lat="49.03745" lon="7.74258">
        <ele>324.1</ele>
        <time>2017-05-03T12:37:11Z</time>
      </trkpt>
      <trkpt lat="49.03735" lon="7.74277">
        <ele>323.14</ele>
        <time>2017-05-03T12:37:29Z</time>
      </trkpt>
      <trkpt lat="49.03724" lon="7.74301">
        <ele>325.06</ele>
        <time>2017-05-03T12:37:48Z</time>
      </trkpt>
      <trkpt lat="49.03723" lon="7.74317">
        <ele>324.58</ele>
        <time>2017-05-03T12:38:00Z</time>
      </trkpt>
      <trkpt lat="49.03721" lon="7.74319">
        <ele>315.93</ele>
        <time>2017-05-03T12:40:31Z</time>
      </trkpt>
      <trkpt lat="49.03723" lon="7.74339">
        <ele>323.62</ele>
        <time>2017-05-03T12:40:59Z</time>
      </trkpt>
      <trkpt lat="49.03716" lon="7.74342">
        <ele>319.78</ele>
        <time>2017-05-03T12:41:29Z</time>
      </trkpt>
      <trkpt lat="49.03707" lon="7.74341">
        <ele>328.43</ele>
        <time>2017-05-03T12:41:50Z</time>
      </trkpt>
      <trkpt lat="49.03713" lon="7.74344">
        <ele>328.43</ele>
        <time>2017-05-03T12:42:07Z</time>
      </trkpt>
      <trkpt lat="49.03707" lon="7.74345">
        <ele>333.71</ele>
        <time>2017-05-03T12:42:25Z</time>
      </trkpt>
      <trkpt lat="49.03701" lon="7.74327">
        <ele>338.04</ele>
        <time>2017-05-03T12:42:58Z</time>
      </trkpt>
      <trkpt lat="49.03697" lon="7.74326">
        <ele>338.52</ele>
        <time>2017-05-03T12:43:26Z</time>
      </trkpt>
      <trkpt lat="49.03706" lon="7.74331">
        <ele>336.6</ele>
        <time>2017-05-03T12:43:54Z</time>
      </trkpt>
      <trkpt lat="49.03707" lon="7.74331">
        <ele>330.35</ele>
        <time>2017-05-03T12:44:26Z</time>
      </trkpt>
      <trkpt lat="49.03705" lon="7.74332">
        <ele>326.5</ele>
        <time>2017-05-03T12:44:49Z</time>
      </trkpt>
      <trkpt lat="49.03697" lon="7.74335">
        <ele>328.91</ele>
        <time>2017-05-03T12:45:04Z</time>
      </trkpt>
      <trkpt lat="49.03695" lon="7.74333">
        <ele>328.43</ele>
        <time>2017-05-03T12:45:39Z</time>
      </trkpt>
      <trkpt lat="49.03682" lon="7.74326">
        <ele>326.5</ele>
        <time>2017-05-03T12:46:02Z</time>
      </trkpt>
      <trkpt lat="49.0367" lon="7.74329">
        <ele>329.87</ele>
        <time>2017-05-03T12:46:22Z</time>
      </trkpt>
      <trkpt lat="49.03666" lon="7.74323">
        <ele>328.43</ele>
        <time>2017-05-03T12:46:38Z</time>
      </trkpt>
      <trkpt lat="49.03663" lon="7.74327">
        <ele>328.91</ele>
        <time>2017-05-03T12:48:01Z</time>
      </trkpt>
      <trkpt lat="49.03671" lon="7.74331">
        <ele>326.5</ele>
        <time>2017-05-03T12:48:14Z</time>
      </trkpt>
      <trkpt lat="49.03685" lon="7.74327">
        <ele>324.58</ele>
        <time>2017-05-03T12:48:31Z</time>
      </trkpt>
      <trkpt lat="49.03694" lon="7.74328">
        <ele>326.02</ele>
        <time>2017-05-03T12:48:51Z</time>
      </trkpt>
      <trkpt lat="49.03703" lon="7.74333">
        <ele>324.58</ele>
        <time>2017-05-03T12:48:59Z</time>
      </trkpt>
      <trkpt lat="49.0371" lon="7.74331">
        <ele>319.78</ele>
        <time>2017-05-03T12:49:13Z</time>
      </trkpt>
      <trkpt lat="49.03716" lon="7.7434">
        <ele>317.85</ele>
        <time>2017-05-03T12:49:30Z</time>
      </trkpt>
      <trkpt lat="49.0372" lon="7.74335">
        <ele>317.85</ele>
        <time>2017-05-03T12:49:45Z</time>
      </trkpt>
      <trkpt lat="49.03717" lon="7.74323">
        <ele>321.7</ele>
        <time>2017-05-03T12:50:36Z</time>
      </trkpt>
      <trkpt lat="49.03719" lon="7.74336">
        <ele>323.14</ele>
        <time>2017-05-03T12:50:47Z</time>
      </trkpt>
      <trkpt lat="49.03717" lon="7.74341">
        <ele>318.81</ele>
        <time>2017-05-03T12:50:59Z</time>
      </trkpt>
      <trkpt lat="49.03708" lon="7.74347">
        <ele>315.45</ele>
        <time>2017-05-03T12:51:17Z</time>
      </trkpt>
      <trkpt lat="49.03716" lon="7.7436">
        <ele>311.6</ele>
        <time>2017-05-03T12:51:31Z</time>
      </trkpt>
      <trkpt lat="49.03708" lon="7.74348">
        <ele>315.93</ele>
        <time>2017-05-03T12:51:54Z</time>
      </trkpt>
      <trkpt lat="49.03698" lon="7.74345">
        <ele>311.6</ele>
        <time>2017-05-03T12:52:06Z</time>
      </trkpt>
      <trkpt lat="49.0369" lon="7.74348">
        <ele>304.39</ele>
        <time>2017-05-03T12:52:22Z</time>
      </trkpt>
      <trkpt lat="49.03675" lon="7.74336">
        <ele>302.95</ele>
        <time>2017-05-03T12:52:53Z</time>
      </trkpt>
      <trkpt lat="49.03664" lon="7.74334">
        <ele>299.59</ele>
        <time>2017-05-03T12:53:22Z</time>
      </trkpt>
      <trkpt lat="49.03657" lon="7.74328">
        <ele>298.63</ele>
        <time>2017-05-03T12:54:42Z</time>
      </trkpt>
      <trkpt lat="49.03662" lon="7.74309">
        <ele>301.51</ele>
        <time>2017-05-03T12:54:53Z</time>
      </trkpt>
      <trkpt lat="49.03673" lon="7.74308">
        <ele>300.07</ele>
        <time>2017-05-03T12:55:04Z</time>
      </trkpt>
      <trkpt lat="49.03677" lon="7.74309">
        <ele>301.51</ele>
        <time>2017-05-03T12:55:18Z</time>
      </trkpt>
      <trkpt lat="49.03688" lon="7.74305">
        <ele>308.24</ele>
        <time>2017-05-03T12:55:45Z</time>
      </trkpt>
      <trkpt lat="49.03708" lon="7.74311">
        <ele>312.09</ele>
        <time>2017-05-03T12:56:12Z</time>
      </trkpt>
      <trkpt lat="49.03715" lon="7.74316">
        <ele>315.45</ele>
        <time>2017-05-03T12:56:31Z</time>
      </trkpt>
      <trkpt lat="49.03727" lon="7.74312">
        <ele>320.74</ele>
        <time>2017-05-03T12:56:58Z</time>
      </trkpt>
      <trkpt lat="49.03723" lon="7.74301">
        <ele>315.45</ele>
        <time>2017-05-03T12:57:47Z</time>
      </trkpt>
      <trkpt lat="49.03719" lon="7.74302">
        <ele>314.49</ele>
        <time>2017-05-03T12:58:15Z</time>
      </trkpt>
      <trkpt lat="49.03705" lon="7.74306">
        <ele>305.36</ele>
        <time>2017-05-03T12:58:38Z</time>
      </trkpt>
      <trkpt lat="49.03685" lon="7.74304">
        <ele>301.03</ele>
        <time>2017-05-03T12:59:02Z</time>
      </trkpt>
      <trkpt lat="49.03669" lon="7.74307">
        <ele>298.63</ele>
        <time>2017-05-03T12:59:17Z</time>
      </trkpt>
      <trkpt lat="49.0366" lon="7.74317">
        <ele>296.7</ele>
        <time>2017-05-03T12:59:36Z</time>
      </trkpt>
      <trkpt lat="49.03655" lon="7.74322">
        <ele>298.63</ele>
        <time>2017-05-03T13:00:56Z</time>
      </trkpt>
      <trkpt lat="49.03661" lon="7.74308">
        <ele>293.34</ele>
        <time>2017-05-03T13:01:59Z</time>
      </trkpt>
      <trkpt lat="49.03667" lon="7.74289">
        <ele>295.74</ele>
        <time>2017-05-03T13:02:10Z</time>
      </trkpt>
      <trkpt lat="49.03674" lon="7.74275">
        <ele>294.3</ele>
        <time>2017-05-03T13:02:21Z</time>
      </trkpt>
      <trkpt lat="49.03679" lon="7.74266">
        <ele>293.34</ele>
        <time>2017-05-03T13:02:28Z</time>
      </trkpt>
      <trkpt lat="49.0369" lon="7.74256">
        <ele>292.86</ele>
        <time>2017-05-03T13:02:39Z</time>
      </trkpt>
      <trkpt lat="49.03702" lon="7.74241">
        <ele>291.42</ele>
        <time>2017-05-03T13:02:59Z</time>
      </trkpt>
      <trkpt lat="49.03709" lon="7.74218">
        <ele>286.61</ele>
        <time>2017-05-03T13:03:14Z</time>
      </trkpt>
      <trkpt lat="49.03723" lon="7.742">
        <ele>289.49</ele>
        <time>2017-05-03T13:03:27Z</time>
      </trkpt>
      <trkpt lat="49.03733" lon="7.74182">
        <ele>285.17</ele>
        <time>2017-05-03T13:03:39Z</time>
      </trkpt>
      <trkpt lat="49.03742" lon="7.74162">
        <ele>284.69</ele>
        <time>2017-05-03T13:04:09Z</time>
      </trkpt>
      <trkpt lat="49.03741" lon="7.74138">
        <ele>287.57</ele>
        <time>2017-05-03T13:04:22Z</time>
      </trkpt>
      <trkpt lat="49.03739" lon="7.74126">
        <ele>284.69</ele>
        <time>2017-05-03T13:05:37Z</time>
      </trkpt>
      <trkpt lat="49.03731" lon="7.74108">
        <ele>279.88</ele>
        <time>2017-05-03T13:06:09Z</time>
      </trkpt>
      <trkpt lat="49.03726" lon="7.74079">
        <ele>276.04</ele>
        <time>2017-05-03T13:06:28Z</time>
      </trkpt>
      <trkpt lat="49.03716" lon="7.74053">
        <ele>269.31</ele>
        <time>2017-05-03T13:06:56Z</time>
      </trkpt>
      <trkpt lat="49.03708" lon="7.74028">
        <ele>264.98</ele>
        <time>2017-05-03T13:07:17Z</time>
      </trkpt>
      <trkpt lat="49.03696" lon="7.74002">
        <ele>263.06</ele>
        <time>2017-05-03T13:07:31Z</time>
      </trkpt>
      <trkpt lat="49.03688" lon="7.73987">
        <ele>260.65</ele>
        <time>2017-05-03T13:07:46Z</time>
      </trkpt>
      <trkpt lat="49.03681" lon="7.73978">
        <ele>258.73</ele>
        <time>2017-05-03T13:08:15Z</time>
      </trkpt>
      <trkpt lat="49.03671" lon="7.73967">
        <ele>256.81</ele>
        <time>2017-05-03T13:08:29Z</time>
      </trkpt>
      <trkpt lat="49.03654" lon="7.73961">
        <ele>255.37</ele>
        <time>2017-05-03T13:08:43Z</time>
      </trkpt>
      <trkpt lat="49.03641" lon="7.73967">
        <ele>253.93</ele>
        <time>2017-05-03T13:08:56Z</time>
      </trkpt>
      <trkpt lat="49.03626" lon="7.7397">
        <ele>252.96</ele>
        <time>2017-05-03T13:09:05Z</time>
      </trkpt>
      <trkpt lat="49.03611" lon="7.73966">
        <ele>250.56</ele>
        <time>2017-05-03T13:09:18Z</time>
      </trkpt>
      <trkpt lat="49.03597" lon="7.73963">
        <ele>249.12</ele>
        <time>2017-05-03T13:09:30Z</time>
      </trkpt>
      <trkpt lat="49.03579" lon="7.73963">
        <ele>248.64</ele>
        <time>2017-05-03T13:09:46Z</time>
      </trkpt>
      <trkpt lat="49.03567" lon="7.73958">
        <ele>248.16</ele>
        <time>2017-05-03T13:09:58Z</time>
      </trkpt>
      <trkpt lat="49.03551" lon="7.73957">
        <ele>245.75</ele>
        <time>2017-05-03T13:10:12Z</time>
      </trkpt>
      <trkpt lat="49.03529" lon="7.73956">
        <ele>245.27</ele>
        <time>2017-05-03T13:10:27Z</time>
      </trkpt>
      <trkpt lat="49.03512" lon="7.73961">
        <ele>244.31</ele>
        <time>2017-05-03T13:10:41Z</time>
      </trkpt>
      <trkpt lat="49.03499" lon="7.73963">
        <ele>243.83</ele>
        <time>2017-05-03T13:10:52Z</time>
      </trkpt>
      <trkpt lat="49.03485" lon="7.73966">
        <ele>242.87</ele>
        <time>2017-05-03T13:11:05Z</time>
      </trkpt>
      <trkpt lat="49.03467" lon="7.73969">
        <ele>240.95</ele>
        <time>2017-05-03T13:11:17Z</time>
      </trkpt>
      <trkpt lat="49.03448" lon="7.73975">
        <ele>240.47</ele>
        <time>2017-05-03T13:11:31Z</time>
      </trkpt>
      <trkpt lat="49.0343" lon="7.73979">
        <ele>239.02</ele>
        <time>2017-05-03T13:11:46Z</time>
      </trkpt>
      <trkpt lat="49.03411" lon="7.73986">
        <ele>237.58</ele>
        <time>2017-05-03T13:11:59Z</time>
      </trkpt>
      <trkpt lat="49.03398" lon="7.73991">
        <ele>236.14</ele>
        <time>2017-05-03T13:12:12Z</time>
      </trkpt>
      <trkpt lat="49.03371" lon="7.73998">
        <ele>234.22</ele>
        <time>2017-05-03T13:12:31Z</time>
      </trkpt>
      <trkpt lat="49.03359" lon="7.74004">
        <ele>233.74</ele>
        <time>2017-05-03T13:12:42Z</time>
      </trkpt>
      <trkpt lat="49.03341" lon="7.73995">
        <ele>232.3</ele>
        <time>2017-05-03T13:12:57Z</time>
      </trkpt>
      <trkpt lat="49.0333" lon="7.73994">
        <ele>232.3</ele>
        <time>2017-05-03T13:13:11Z</time>
      </trkpt>
      <trkpt lat="49.0332" lon="7.73986">
        <ele>231.81</ele>
        <time>2017-05-03T13:13:21Z</time>
      </trkpt>
      <trkpt lat="49.03304" lon="7.73983">
        <ele>231.33</ele>
        <time>2017-05-03T13:13:32Z</time>
      </trkpt>
      <trkpt lat="49.03289" lon="7.73986">
        <ele>230.85</ele>
        <time>2017-05-03T13:13:42Z</time>
      </trkpt>
      <trkpt lat="49.03277" lon="7.73986">
        <ele>230.85</ele>
        <time>2017-05-03T13:13:50Z</time>
      </trkpt>
      <trkpt lat="49.03265" lon="7.73985">
        <ele>230.37</ele>
        <time>2017-05-03T13:14:00Z</time>
      </trkpt>
      <trkpt lat="49.03252" lon="7.73985">
        <ele>230.37</ele>
        <time>2017-05-03T13:14:11Z</time>
      </trkpt>
      <trkpt lat="49.03236" lon="7.73988">
        <ele>230.37</ele>
        <time>2017-05-03T13:14:21Z</time>
      </trkpt>
      <trkpt lat="49.03222" lon="7.73988">
        <ele>229.89</ele>
        <time>2017-05-03T13:14:31Z</time>
      </trkpt>
      <trkpt lat="49.03208" lon="7.73993">
        <ele>229.89</ele>
        <time>2017-05-03T13:14:41Z</time>
      </trkpt>
      <trkpt lat="49.03195" lon="7.74002">
        <ele>229.89</ele>
        <time>2017-05-03T13:14:51Z</time>
      </trkpt>
      <trkpt lat="49.03182" lon="7.74008">
        <ele>229.89</ele>
        <time>2017-05-03T13:15:02Z</time>
      </trkpt>
      <trkpt lat="49.03165" lon="7.74003">
        <ele>229.41</ele>
        <time>2017-05-03T13:15:14Z</time>
      </trkpt>
      <trkpt lat="49.03157" lon="7.73995">
        <ele>228.93</ele>
        <time>2017-05-03T13:15:25Z</time>
      </trkpt>
      <trkpt lat="49.0315" lon="7.73981">
        <ele>228.93</ele>
        <time>2017-05-03T13:15:37Z</time>
      </trkpt>
      <trkpt lat="49.03147" lon="7.73964">
        <ele>227.97</ele>
        <time>2017-05-03T13:15:46Z</time>
      </trkpt>
      <trkpt lat="49.03142" lon="7.73947">
        <ele>227.49</ele>
        <time>2017-05-03T13:15:56Z</time>
      </trkpt>
      <trkpt lat="49.03138" lon="7.73928">
        <ele>227.01</ele>
        <time>2017-05-03T13:16:07Z</time>
      </trkpt>
      <trkpt lat="49.03135" lon="7.73908">
        <ele>226.05</ele>
        <time>2017-05-03T13:16:17Z</time>
      </trkpt>
      <trkpt lat="49.03131" lon="7.73889">
        <ele>225.09</ele>
        <time>2017-05-03T13:16:28Z</time>
      </trkpt>
      <trkpt lat="49.03127" lon="7.73868">
        <ele>224.12</ele>
        <time>2017-05-03T13:16:40Z</time>
      </trkpt>
      <trkpt lat="49.03119" lon="7.73847">
        <ele>223.64</ele>
        <time>2017-05-03T13:16:51Z</time>
      </trkpt>
      <trkpt lat="49.03109" lon="7.7383">
        <ele>223.16</ele>
        <time>2017-05-03T13:17:01Z</time>
      </trkpt>
      <trkpt lat="49.03101" lon="7.73812">
        <ele>223.16</ele>
        <time>2017-05-03T13:17:11Z</time>
      </trkpt>
      <trkpt lat="49.03093" lon="7.73798">
        <ele>223.16</ele>
        <time>2017-05-03T13:17:21Z</time>
      </trkpt>
      <trkpt lat="49.03083" lon="7.73785">
        <ele>222.68</ele>
        <time>2017-05-03T13:17:30Z</time>
      </trkpt>
      <trkpt lat="49.03075" lon="7.7377">
        <ele>222.68</ele>
        <time>2017-05-03T13:17:40Z</time>
      </trkpt>
      <trkpt lat="49.03069" lon="7.73756">
        <ele>222.2</ele>
        <time>2017-05-03T13:17:49Z</time>
      </trkpt>
      <trkpt lat="49.0306" lon="7.73744">
        <ele>222.2</ele>
        <time>2017-05-03T13:17:59Z</time>
      </trkpt>
      <trkpt lat="49.03052" lon="7.73731">
        <ele>221.72</ele>
        <time>2017-05-03T13:18:09Z</time>
      </trkpt>
      <trkpt lat="49.03044" lon="7.73719">
        <ele>221.72</ele>
        <time>2017-05-03T13:18:18Z</time>
      </trkpt>
      <trkpt lat="49.03038" lon="7.73701">
        <ele>222.2</ele>
        <time>2017-05-03T13:18:28Z</time>
      </trkpt>
      <trkpt lat="49.0303" lon="7.7369">
        <ele>221.72</ele>
        <time>2017-05-03T13:18:37Z</time>
      </trkpt>
      <trkpt lat="49.03021" lon="7.73679">
        <ele>222.2</ele>
        <time>2017-05-03T13:18:46Z</time>
      </trkpt>
      <trkpt lat="49.03012" lon="7.73667">
        <ele>221.72</ele>
        <time>2017-05-03T13:18:56Z</time>
      </trkpt>
      <trkpt lat="49.03003" lon="7.73656">
        <ele>222.2</ele>
        <time>2017-05-03T13:19:05Z</time>
      </trkpt>
      <trkpt lat="49.02997" lon="7.73644">
        <ele>222.2</ele>
        <time>2017-05-03T13:19:29Z</time>
      </trkpt>
      <trkpt lat="49.02989" lon="7.73629">
        <ele>222.68</ele>
        <time>2017-05-03T13:19:39Z</time>
      </trkpt>
      <trkpt lat="49.02977" lon="7.73612">
        <ele>223.64</ele>
        <time>2017-05-03T13:19:55Z</time>
      </trkpt>
      <trkpt lat="49.02967" lon="7.73594">
        <ele>223.16</ele>
        <time>2017-05-03T13:20:06Z</time>
      </trkpt>
      <trkpt lat="49.02959" lon="7.73581">
        <ele>224.12</ele>
        <time>2017-05-03T13:20:16Z</time>
      </trkpt>
      <trkpt lat="49.02953" lon="7.73564">
        <ele>224.61</ele>
        <time>2017-05-03T13:20:28Z</time>
      </trkpt>
      <trkpt lat="49.02944" lon="7.73548">
        <ele>224.61</ele>
        <time>2017-05-03T13:20:38Z</time>
      </trkpt>
      <trkpt lat="49.02937" lon="7.7353">
        <ele>224.61</ele>
        <time>2017-05-03T13:20:50Z</time>
      </trkpt>
      <trkpt lat="49.02933" lon="7.73511">
        <ele>223.64</ele>
        <time>2017-05-03T13:21:02Z</time>
      </trkpt>
      <trkpt lat="49.02924" lon="7.73491">
        <ele>224.12</ele>
        <time>2017-05-03T13:21:14Z</time>
      </trkpt>
      <trkpt lat="49.02921" lon="7.73472">
        <ele>224.12</ele>
        <time>2017-05-03T13:21:24Z</time>
      </trkpt>
      <trkpt lat="49.0292" lon="7.73454">
        <ele>224.12</ele>
        <time>2017-05-03T13:21:34Z</time>
      </trkpt>
      <trkpt lat="49.0292" lon="7.73436">
        <ele>224.12</ele>
        <time>2017-05-03T13:21:43Z</time>
      </trkpt>
      <trkpt lat="49.02922" lon="7.73419">
        <ele>223.16</ele>
        <time>2017-05-03T13:21:53Z</time>
      </trkpt>
      <trkpt lat="49.02919" lon="7.73401">
        <ele>223.16</ele>
        <time>2017-05-03T13:22:03Z</time>
      </trkpt>
      <trkpt lat="49.02912" lon="7.73387">
        <ele>222.2</ele>
        <time>2017-05-03T13:22:15Z</time>
      </trkpt>
      <trkpt lat="49.02908" lon="7.73389">
        <ele>221.72</ele>
        <time>2017-05-03T13:22:28Z</time>
      </trkpt>
      <trkpt lat="49.02902" lon="7.73405">
        <ele>220.76</ele>
        <time>2017-05-03T13:22:54Z</time>
      </trkpt>
      <trkpt lat="49.02896" lon="7.73421">
        <ele>220.28</ele>
        <time>2017-05-03T13:23:04Z</time>
      </trkpt>
      <trkpt lat="49.02887" lon="7.73433">
        <ele>219.32</ele>
        <time>2017-05-03T13:23:14Z</time>
      </trkpt>
      <trkpt lat="49.02881" lon="7.7344">
        <ele>219.32</ele>
        <time>2017-05-03T13:23:53Z</time>
      </trkpt>
      <trkpt lat="49.02872" lon="7.73432">
        <ele>219.32</ele>
        <time>2017-05-03T13:24:04Z</time>
      </trkpt>
      <trkpt lat="49.02862" lon="7.73425">
        <ele>218.36</ele>
        <time>2017-05-03T13:24:20Z</time>
      </trkpt>
      <trkpt lat="49.02858" lon="7.73407">
        <ele>218.84</ele>
        <time>2017-05-03T13:24:38Z</time>
      </trkpt>
      <trkpt lat="49.02856" lon="7.73391">
        <ele>219.8</ele>
        <time>2017-05-03T13:24:49Z</time>
      </trkpt>
      <trkpt lat="49.02854" lon="7.73374">
        <ele>221.24</ele>
        <time>2017-05-03T13:25:00Z</time>
      </trkpt>
      <trkpt lat="49.02851" lon="7.73359">
        <ele>222.2</ele>
        <time>2017-05-03T13:25:14Z</time>
      </trkpt>
      <trkpt lat="49.02848" lon="7.73343">
        <ele>224.61</ele>
        <time>2017-05-03T13:25:27Z</time>
      </trkpt>
      <trkpt lat="49.02848" lon="7.73331">
        <ele>227.01</ele>
        <time>2017-05-03T13:25:41Z</time>
      </trkpt>
      <trkpt lat="49.02847" lon="7.73317">
        <ele>228.93</ele>
        <time>2017-05-03T13:25:56Z</time>
      </trkpt>
      <trkpt lat="49.02848" lon="7.73303">
        <ele>231.81</ele>
        <time>2017-05-03T13:26:10Z</time>
      </trkpt>
      <trkpt lat="49.02852" lon="7.7328">
        <ele>235.18</ele>
        <time>2017-05-03T13:26:30Z</time>
      </trkpt>
      <trkpt lat="49.02854" lon="7.7326">
        <ele>237.1</ele>
        <time>2017-05-03T13:26:49Z</time>
      </trkpt>
      <trkpt lat="49.02854" lon="7.73241">
        <ele>239.51</ele>
        <time>2017-05-03T13:27:04Z</time>
      </trkpt>
      <trkpt lat="49.02855" lon="7.73233">
        <ele>239.51</ele>
        <time>2017-05-03T13:28:39Z</time>
      </trkpt>
      <trkpt lat="49.02855" lon="7.73219">
        <ele>240.47</ele>
        <time>2017-05-03T13:28:53Z</time>
      </trkpt>
      <trkpt lat="49.02853" lon="7.73202">
        <ele>241.43</ele>
        <time>2017-05-03T13:29:03Z</time>
      </trkpt>
      <trkpt lat="49.02849" lon="7.73187">
        <ele>241.91</ele>
        <time>2017-05-03T13:29:12Z</time>
      </trkpt>
      <trkpt lat="49.02846" lon="7.73171">
        <ele>242.87</ele>
        <time>2017-05-03T13:29:20Z</time>
      </trkpt>
      <trkpt lat="49.02847" lon="7.73157">
        <ele>243.35</ele>
        <time>2017-05-03T13:29:29Z</time>
      </trkpt>
      <trkpt lat="49.0285" lon="7.73141">
        <ele>244.31</ele>
        <time>2017-05-03T13:29:39Z</time>
      </trkpt>
      <trkpt lat="49.02853" lon="7.73126">
        <ele>245.27</ele>
        <time>2017-05-03T13:29:49Z</time>
      </trkpt>
      <trkpt lat="49.0286" lon="7.73113">
        <ele>246.72</ele>
        <time>2017-05-03T13:30:04Z</time>
      </trkpt>
      <trkpt lat="49.02866" lon="7.73098">
        <ele>248.16</ele>
        <time>2017-05-03T13:30:17Z</time>
      </trkpt>
      <trkpt lat="49.02872" lon="7.73084">
        <ele>249.6</ele>
        <time>2017-05-03T13:30:28Z</time>
      </trkpt>
      <trkpt lat="49.02877" lon="7.73071">
        <ele>250.56</ele>
        <time>2017-05-03T13:30:40Z</time>
      </trkpt>
      <trkpt lat="49.02881" lon="7.73055">
        <ele>251.52</ele>
        <time>2017-05-03T13:30:51Z</time>
      </trkpt>
      <trkpt lat="49.02883" lon="7.73041">
        <ele>251.52</ele>
        <time>2017-05-03T13:31:02Z</time>
      </trkpt>
      <trkpt lat="49.02882" lon="7.73023">
        <ele>252</ele>
        <time>2017-05-03T13:31:13Z</time>
      </trkpt>
      <trkpt lat="49.02884" lon="7.73008">
        <ele>252</ele>
        <time>2017-05-03T13:31:43Z</time>
      </trkpt>
      <trkpt lat="49.02883" lon="7.72993">
        <ele>252.96</ele>
        <time>2017-05-03T13:32:18Z</time>
      </trkpt>
      <trkpt lat="49.02882" lon="7.72979">
        <ele>252</ele>
        <time>2017-05-03T13:32:29Z</time>
      </trkpt>
      <trkpt lat="49.02881" lon="7.72965">
        <ele>252</ele>
        <time>2017-05-03T13:32:39Z</time>
      </trkpt>
      <trkpt lat="49.02881" lon="7.7295">
        <ele>251.52</ele>
        <time>2017-05-03T13:32:50Z</time>
      </trkpt>
      <trkpt lat="49.0288" lon="7.72935">
        <ele>251.52</ele>
        <time>2017-05-03T13:33:01Z</time>
      </trkpt>
      <trkpt lat="49.02879" lon="7.7292">
        <ele>252</ele>
        <time>2017-05-03T13:33:12Z</time>
      </trkpt>
      <trkpt lat="49.02878" lon="7.72905">
        <ele>252</ele>
        <time>2017-05-03T13:33:21Z</time>
      </trkpt>
      <trkpt lat="49.02879" lon="7.72891">
        <ele>252</ele>
        <time>2017-05-03T13:33:31Z</time>
      </trkpt>
      <trkpt lat="49.02879" lon="7.72878">
        <ele>251.52</ele>
        <time>2017-05-03T13:34:29Z</time>
      </trkpt>
      <trkpt lat="49.02879" lon="7.72861">
        <ele>251.04</ele>
        <time>2017-05-03T13:34:41Z</time>
      </trkpt>
      <trkpt lat="49.02879" lon="7.72847">
        <ele>251.04</ele>
        <time>2017-05-03T13:34:49Z</time>
      </trkpt>
      <trkpt lat="49.02879" lon="7.72831">
        <ele>251.52</ele>
        <time>2017-05-03T13:34:57Z</time>
      </trkpt>
      <trkpt lat="49.02881" lon="7.72817">
        <ele>250.56</ele>
        <time>2017-05-03T13:35:05Z</time>
      </trkpt>
      <trkpt lat="49.02881" lon="7.72802">
        <ele>251.04</ele>
        <time>2017-05-03T13:35:13Z</time>
      </trkpt>
      <trkpt lat="49.02881" lon="7.72788">
        <ele>251.04</ele>
        <time>2017-05-03T13:35:22Z</time>
      </trkpt>
      <trkpt lat="49.02883" lon="7.72772">
        <ele>250.56</ele>
        <time>2017-05-03T13:35:32Z</time>
      </trkpt>
      <trkpt lat="49.02885" lon="7.72755">
        <ele>250.56</ele>
        <time>2017-05-03T13:35:41Z</time>
      </trkpt>
      <trkpt lat="49.02885" lon="7.72741">
        <ele>250.56</ele>
        <time>2017-05-03T13:35:49Z</time>
      </trkpt>
      <trkpt lat="49.02886" lon="7.72723">
        <ele>250.56</ele>
        <time>2017-05-03T13:35:58Z</time>
      </trkpt>
      <trkpt lat="49.02885" lon="7.72707">
        <ele>250.56</ele>
        <time>2017-05-03T13:36:07Z</time>
      </trkpt>
      <trkpt lat="49.02884" lon="7.72692">
        <ele>250.56</ele>
        <time>2017-05-03T13:36:16Z</time>
      </trkpt>
      <trkpt lat="49.02884" lon="7.72675">
        <ele>250.56</ele>
        <time>2017-05-03T13:36:25Z</time>
      </trkpt>
      <trkpt lat="49.02882" lon="7.72657">
        <ele>251.52</ele>
        <time>2017-05-03T13:36:36Z</time>
      </trkpt>
      <trkpt lat="49.0288" lon="7.7264">
        <ele>252.48</ele>
        <time>2017-05-03T13:36:46Z</time>
      </trkpt>
      <trkpt lat="49.02873" lon="7.72626">
        <ele>252.96</ele>
        <time>2017-05-03T13:36:59Z</time>
      </trkpt>
      <trkpt lat="49.02869" lon="7.72605">
        <ele>253.93</ele>
        <time>2017-05-03T13:37:11Z</time>
      </trkpt>
      <trkpt lat="49.02863" lon="7.72586">
        <ele>254.89</ele>
        <time>2017-05-03T13:37:23Z</time>
      </trkpt>
      <trkpt lat="49.02862" lon="7.72566">
        <ele>256.33</ele>
        <time>2017-05-03T13:37:36Z</time>
      </trkpt>
      <trkpt lat="49.02855" lon="7.72551">
        <ele>255.37</ele>
        <time>2017-05-03T13:37:50Z</time>
      </trkpt>
      <trkpt lat="49.02853" lon="7.72535">
        <ele>253.93</ele>
        <time>2017-05-03T13:38:04Z</time>
      </trkpt>
      <trkpt lat="49.02856" lon="7.72507">
        <ele>253.93</ele>
        <time>2017-05-03T13:38:17Z</time>
      </trkpt>
      <trkpt lat="49.02855" lon="7.72491">
        <ele>252</ele>
        <time>2017-05-03T13:38:32Z</time>
      </trkpt>
      <trkpt lat="49.02854" lon="7.72463">
        <ele>252</ele>
        <time>2017-05-03T13:38:47Z</time>
      </trkpt>
      <trkpt lat="49.02857" lon="7.72437">
        <ele>251.04</ele>
        <time>2017-05-03T13:38:59Z</time>
      </trkpt>
      <trkpt lat="49.02862" lon="7.72408">
        <ele>249.6</ele>
        <time>2017-05-03T13:39:14Z</time>
      </trkpt>
      <trkpt lat="49.02871" lon="7.72386">
        <ele>247.68</ele>
        <time>2017-05-03T13:39:36Z</time>
      </trkpt>
      <trkpt lat="49.02876" lon="7.72359">
        <ele>246.23</ele>
        <time>2017-05-03T13:39:55Z</time>
      </trkpt>
      <trkpt lat="49.02885" lon="7.72336">
        <ele>244.31</ele>
        <time>2017-05-03T13:40:11Z</time>
      </trkpt>
      <trkpt lat="49.02893" lon="7.72316">
        <ele>241.91</ele>
        <time>2017-05-03T13:40:27Z</time>
      </trkpt>
      <trkpt lat="49.02902" lon="7.72289">
        <ele>240.95</ele>
        <time>2017-05-03T13:40:45Z</time>
      </trkpt>
      <trkpt lat="49.02906" lon="7.72258">
        <ele>238.54</ele>
        <time>2017-05-03T13:41:02Z</time>
      </trkpt>
      <trkpt lat="49.02916" lon="7.72233">
        <ele>237.58</ele>
        <time>2017-05-03T13:41:22Z</time>
      </trkpt>
      <trkpt lat="49.0292" lon="7.72212">
        <ele>234.7</ele>
        <time>2017-05-03T13:41:41Z</time>
      </trkpt>
      <trkpt lat="49.02929" lon="7.72192">
        <ele>232.3</ele>
        <time>2017-05-03T13:41:55Z</time>
      </trkpt>
      <trkpt lat="49.02938" lon="7.72162">
        <ele>230.37</ele>
        <time>2017-05-03T13:42:15Z</time>
      </trkpt>
      <trkpt lat="49.02948" lon="7.72134">
        <ele>227.49</ele>
        <time>2017-05-03T13:42:30Z</time>
      </trkpt>
      <trkpt lat="49.02954" lon="7.72114">
        <ele>226.05</ele>
        <time>2017-05-03T13:42:42Z</time>
      </trkpt>
      <trkpt lat="49.02955" lon="7.72094">
        <ele>225.57</ele>
        <time>2017-05-03T13:42:53Z</time>
      </trkpt>
      <trkpt lat="49.02954" lon="7.72077">
        <ele>224.61</ele>
        <time>2017-05-03T13:43:24Z</time>
      </trkpt>
      <trkpt lat="49.02956" lon="7.7206">
        <ele>224.12</ele>
        <time>2017-05-03T13:43:39Z</time>
      </trkpt>
      <trkpt lat="49.02963" lon="7.72044">
        <ele>224.12</ele>
        <time>2017-05-03T13:43:49Z</time>
      </trkpt>
      <trkpt lat="49.02968" lon="7.72031">
        <ele>224.12</ele>
        <time>2017-05-03T13:43:59Z</time>
      </trkpt>
      <trkpt lat="49.02969" lon="7.72015">
        <ele>224.12</ele>
        <time>2017-05-03T13:44:10Z</time>
      </trkpt>
      <trkpt lat="49.02971" lon="7.71998">
        <ele>223.64</ele>
        <time>2017-05-03T13:44:20Z</time>
      </trkpt>
      <trkpt lat="49.02971" lon="7.7198">
        <ele>224.12</ele>
        <time>2017-05-03T13:44:31Z</time>
      </trkpt>
      <trkpt lat="49.02973" lon="7.71964">
        <ele>224.12</ele>
        <time>2017-05-03T13:44:42Z</time>
      </trkpt>
      <trkpt lat="49.02975" lon="7.71942">
        <ele>225.09</ele>
        <time>2017-05-03T13:44:52Z</time>
      </trkpt>
      <trkpt lat="49.02973" lon="7.71926">
        <ele>225.09</ele>
        <time>2017-05-03T13:45:01Z</time>
      </trkpt>
      <trkpt lat="49.02974" lon="7.71908">
        <ele>225.09</ele>
        <time>2017-05-03T13:45:11Z</time>
      </trkpt>
      <trkpt lat="49.02974" lon="7.71889">
        <ele>225.57</ele>
        <time>2017-05-03T13:45:20Z</time>
      </trkpt>
      <trkpt lat="49.02975" lon="7.71872">
        <ele>225.57</ele>
        <time>2017-05-03T13:45:30Z</time>
      </trkpt>
      <trkpt lat="49.02977" lon="7.71857">
        <ele>226.05</ele>
        <time>2017-05-03T13:45:39Z</time>
      </trkpt>
      <trkpt lat="49.02978" lon="7.7184">
        <ele>226.05</ele>
        <time>2017-05-03T13:45:49Z</time>
      </trkpt>
      <trkpt lat="49.02977" lon="7.71823">
        <ele>226.05</ele>
        <time>2017-05-03T13:45:58Z</time>
      </trkpt>
      <trkpt lat="49.02977" lon="7.71805">
        <ele>227.01</ele>
        <time>2017-05-03T13:46:07Z</time>
      </trkpt>
      <trkpt lat="49.02974" lon="7.71789">
        <ele>226.53</ele>
        <time>2017-05-03T13:46:18Z</time>
      </trkpt>
      <trkpt lat="49.02977" lon="7.71772">
        <ele>227.01</ele>
        <time>2017-05-03T13:46:30Z</time>
      </trkpt>
      <trkpt lat="49.02975" lon="7.71757">
        <ele>227.01</ele>
        <time>2017-05-03T13:46:40Z</time>
      </trkpt>
      <trkpt lat="49.02972" lon="7.71741">
        <ele>226.05</ele>
        <time>2017-05-03T13:46:51Z</time>
      </trkpt>
      <trkpt lat="49.02971" lon="7.71728">
        <ele>226.05</ele>
        <time>2017-05-03T13:47:01Z</time>
      </trkpt>
      <trkpt lat="49.0297" lon="7.71712">
        <ele>226.05</ele>
        <time>2017-05-03T13:47:11Z</time>
      </trkpt>
      <trkpt lat="49.02969" lon="7.71698">
        <ele>226.05</ele>
        <time>2017-05-03T13:47:31Z</time>
      </trkpt>
      <trkpt lat="49.02967" lon="7.71682">
        <ele>225.57</ele>
        <time>2017-05-03T13:47:40Z</time>
      </trkpt>
      <trkpt lat="49.02964" lon="7.71668">
        <ele>225.57</ele>
        <time>2017-05-03T13:47:49Z</time>
      </trkpt>
      <trkpt lat="49.0296" lon="7.71654">
        <ele>226.53</ele>
        <time>2017-05-03T13:47:59Z</time>
      </trkpt>
      <trkpt lat="49.02957" lon="7.71637">
        <ele>226.05</ele>
        <time>2017-05-03T13:48:15Z</time>
      </trkpt>
      <trkpt lat="49.02956" lon="7.7162">
        <ele>226.05</ele>
        <time>2017-05-03T13:48:24Z</time>
      </trkpt>
      <trkpt lat="49.02954" lon="7.71603">
        <ele>226.05</ele>
        <time>2017-05-03T13:48:33Z</time>
      </trkpt>
      <trkpt lat="49.02952" lon="7.71589">
        <ele>226.05</ele>
        <time>2017-05-03T13:48:42Z</time>
      </trkpt>
      <trkpt lat="49.02951" lon="7.71575">
        <ele>226.53</ele>
        <time>2017-05-03T13:49:02Z</time>
      </trkpt>
      <trkpt lat="49.02951" lon="7.71559">
        <ele>226.53</ele>
        <time>2017-05-03T13:49:11Z</time>
      </trkpt>
      <trkpt lat="49.0295" lon="7.71542">
        <ele>227.01</ele>
        <time>2017-05-03T13:49:20Z</time>
      </trkpt>
      <trkpt lat="49.02948" lon="7.71526">
        <ele>226.53</ele>
        <time>2017-05-03T13:49:30Z</time>
      </trkpt>
      <trkpt lat="49.02946" lon="7.71509">
        <ele>226.53</ele>
        <time>2017-05-03T13:49:40Z</time>
      </trkpt>
      <trkpt lat="49.02946" lon="7.71493">
        <ele>226.53</ele>
        <time>2017-05-03T13:49:49Z</time>
      </trkpt>
      <trkpt lat="49.02948" lon="7.71479">
        <ele>226.05</ele>
        <time>2017-05-03T13:49:57Z</time>
      </trkpt>
      <trkpt lat="49.0295" lon="7.71463">
        <ele>226.53</ele>
        <time>2017-05-03T13:50:06Z</time>
      </trkpt>
      <trkpt lat="49.0295" lon="7.71446">
        <ele>226.53</ele>
        <time>2017-05-03T13:50:15Z</time>
      </trkpt>
      <trkpt lat="49.02954" lon="7.71432">
        <ele>226.53</ele>
        <time>2017-05-03T13:50:23Z</time>
      </trkpt>
      <trkpt lat="49.02956" lon="7.71417">
        <ele>226.05</ele>
        <time>2017-05-03T13:50:31Z</time>
      </trkpt>
      <trkpt lat="49.02958" lon="7.71404">
        <ele>225.57</ele>
        <time>2017-05-03T13:50:40Z</time>
      </trkpt>
      <trkpt lat="49.02961" lon="7.71387">
        <ele>224.61</ele>
        <time>2017-05-03T13:50:49Z</time>
      </trkpt>
      <trkpt lat="49.02964" lon="7.71373">
        <ele>225.09</ele>
        <time>2017-05-03T13:50:57Z</time>
      </trkpt>
      <trkpt lat="49.02969" lon="7.71361">
        <ele>224.61</ele>
        <time>2017-05-03T13:51:05Z</time>
      </trkpt>
      <trkpt lat="49.02972" lon="7.71349">
        <ele>225.09</ele>
        <time>2017-05-03T13:51:14Z</time>
      </trkpt>
      <trkpt lat="49.02977" lon="7.71334">
        <ele>225.09</ele>
        <time>2017-05-03T13:51:22Z</time>
      </trkpt>
      <trkpt lat="49.02981" lon="7.7132">
        <ele>225.09</ele>
        <time>2017-05-03T13:51:32Z</time>
      </trkpt>
      <trkpt lat="49.02985" lon="7.71303">
        <ele>224.61</ele>
        <time>2017-05-03T13:51:41Z</time>
      </trkpt>
      <trkpt lat="49.02991" lon="7.71291">
        <ele>225.09</ele>
        <time>2017-05-03T13:51:51Z</time>
      </trkpt>
      <trkpt lat="49.02996" lon="7.71278">
        <ele>225.57</ele>
        <time>2017-05-03T13:51:59Z</time>
      </trkpt>
      <trkpt lat="49.03003" lon="7.71264">
        <ele>226.05</ele>
        <time>2017-05-03T13:52:08Z</time>
      </trkpt>
      <trkpt lat="49.03008" lon="7.71252">
        <ele>225.57</ele>
        <time>2017-05-03T13:52:18Z</time>
      </trkpt>
      <trkpt lat="49.03014" lon="7.71239">
        <ele>225.09</ele>
        <time>2017-05-03T13:52:27Z</time>
      </trkpt>
      <trkpt lat="49.03022" lon="7.71228">
        <ele>226.53</ele>
        <time>2017-05-03T13:52:34Z</time>
      </trkpt>
      <trkpt lat="49.03015" lon="7.71207">
        <ele>225.57</ele>
        <time>2017-05-03T13:52:44Z</time>
      </trkpt>
      <trkpt lat="49.03017" lon="7.71189">
        <ele>226.05</ele>
        <time>2017-05-03T13:52:54Z</time>
      </trkpt>
      <trkpt lat="49.03023" lon="7.71178">
        <ele>225.57</ele>
        <time>2017-05-03T13:53:04Z</time>
      </trkpt>
      <trkpt lat="49.03026" lon="7.71163">
        <ele>225.09</ele>
        <time>2017-05-03T13:53:15Z</time>
      </trkpt>
      <trkpt lat="49.03032" lon="7.71148">
        <ele>226.05</ele>
        <time>2017-05-03T13:53:53Z</time>
      </trkpt>
      <trkpt lat="49.03037" lon="7.71135">
        <ele>225.57</ele>
        <time>2017-05-03T13:54:16Z</time>
      </trkpt>
      <trkpt lat="49.03043" lon="7.71122">
        <ele>225.57</ele>
        <time>2017-05-03T13:54:26Z</time>
      </trkpt>
      <trkpt lat="49.0305" lon="7.71112">
        <ele>225.09</ele>
        <time>2017-05-03T13:54:36Z</time>
      </trkpt>
      <trkpt lat="49.03061" lon="7.71104">
        <ele>226.05</ele>
        <time>2017-05-03T13:54:48Z</time>
      </trkpt>
      <trkpt lat="49.03069" lon="7.71092">
        <ele>225.57</ele>
        <time>2017-05-03T13:54:58Z</time>
      </trkpt>
      <trkpt lat="49.03076" lon="7.71085">
        <ele>226.05</ele>
        <time>2017-05-03T13:55:09Z</time>
      </trkpt>
      <trkpt lat="49.03082" lon="7.71082">
        <ele>226.05</ele>
        <time>2017-05-03T13:55:23Z</time>
      </trkpt>
      <trkpt lat="49.03095" lon="7.71071">
        <ele>226.05</ele>
        <time>2017-05-03T13:55:43Z</time>
      </trkpt>
      <trkpt lat="49.03106" lon="7.71066">
        <ele>226.05</ele>
        <time>2017-05-03T13:55:52Z</time>
      </trkpt>
      <trkpt lat="49.03116" lon="7.71064">
        <ele>227.01</ele>
        <time>2017-05-03T13:56:03Z</time>
      </trkpt>
      <trkpt lat="49.03126" lon="7.71061">
        <ele>227.01</ele>
        <time>2017-05-03T13:56:15Z</time>
      </trkpt>
      <trkpt lat="49.03137" lon="7.7106">
        <ele>227.01</ele>
        <time>2017-05-03T13:56:24Z</time>
      </trkpt>
      <trkpt lat="49.03147" lon="7.71056">
        <ele>226.53</ele>
        <time>2017-05-03T13:56:34Z</time>
      </trkpt>
      <trkpt lat="49.03158" lon="7.71053">
        <ele>227.97</ele>
        <time>2017-05-03T13:56:44Z</time>
      </trkpt>
      <trkpt lat="49.03171" lon="7.71047">
        <ele>227.97</ele>
        <time>2017-05-03T13:56:55Z</time>
      </trkpt>
      <trkpt lat="49.0318" lon="7.71041">
        <ele>227.97</ele>
        <time>2017-05-03T13:57:04Z</time>
      </trkpt>
      <trkpt lat="49.03188" lon="7.71033">
        <ele>227.97</ele>
        <time>2017-05-03T13:57:14Z</time>
      </trkpt>
      <trkpt lat="49.03197" lon="7.71019">
        <ele>228.45</ele>
        <time>2017-05-03T13:57:26Z</time>
      </trkpt>
      <trkpt lat="49.03204" lon="7.71007">
        <ele>228.45</ele>
        <time>2017-05-03T13:57:35Z</time>
      </trkpt>
      <trkpt lat="49.03211" lon="7.70995">
        <ele>228.93</ele>
        <time>2017-05-03T13:57:44Z</time>
      </trkpt>
      <trkpt lat="49.03219" lon="7.70982">
        <ele>228.45</ele>
        <time>2017-05-03T13:57:53Z</time>
      </trkpt>
      <trkpt lat="49.03223" lon="7.7097">
        <ele>228.45</ele>
        <time>2017-05-03T13:58:03Z</time>
      </trkpt>
      <trkpt lat="49.03227" lon="7.70959">
        <ele>227.97</ele>
        <time>2017-05-03T13:58:12Z</time>
      </trkpt>
      <trkpt lat="49.03233" lon="7.70944">
        <ele>227.97</ele>
        <time>2017-05-03T13:58:23Z</time>
      </trkpt>
      <trkpt lat="49.03238" lon="7.70932">
        <ele>228.45</ele>
        <time>2017-05-03T13:58:32Z</time>
      </trkpt>
      <trkpt lat="49.03244" lon="7.70916">
        <ele>228.45</ele>
        <time>2017-05-03T13:58:42Z</time>
      </trkpt>
      <trkpt lat="49.0325" lon="7.70903">
        <ele>227.97</ele>
        <time>2017-05-03T13:58:51Z</time>
      </trkpt>
      <trkpt lat="49.03255" lon="7.70892">
        <ele>228.93</ele>
        <time>2017-05-03T13:59:02Z</time>
      </trkpt>
      <trkpt lat="49.0326" lon="7.70879">
        <ele>228.93</ele>
        <time>2017-05-03T13:59:10Z</time>
      </trkpt>
      <trkpt lat="49.03262" lon="7.70865">
        <ele>228.93</ele>
        <time>2017-05-03T13:59:18Z</time>
      </trkpt>
      <trkpt lat="49.03265" lon="7.70853">
        <ele>228.45</ele>
        <time>2017-05-03T13:59:28Z</time>
      </trkpt>
      <trkpt lat="49.03265" lon="7.70837">
        <ele>228.45</ele>
        <time>2017-05-03T13:59:37Z</time>
      </trkpt>
      <trkpt lat="49.03266" lon="7.70823">
        <ele>228.45</ele>
        <time>2017-05-03T13:59:47Z</time>
      </trkpt>
      <trkpt lat="49.03269" lon="7.70808">
        <ele>228.93</ele>
        <time>2017-05-03T13:59:57Z</time>
      </trkpt>
      <trkpt lat="49.03265" lon="7.70795">
        <ele>228.45</ele>
        <time>2017-05-03T14:00:15Z</time>
      </trkpt>
      <trkpt lat="49.03265" lon="7.7078">
        <ele>228.93</ele>
        <time>2017-05-03T14:00:25Z</time>
      </trkpt>
      <trkpt lat="49.03261" lon="7.70766">
        <ele>229.89</ele>
        <time>2017-05-03T14:00:34Z</time>
      </trkpt>
      <trkpt lat="49.03257" lon="7.70749">
        <ele>229.89</ele>
        <time>2017-05-03T14:00:43Z</time>
      </trkpt>
      <trkpt lat="49.03251" lon="7.70737">
        <ele>229.41</ele>
        <time>2017-05-03T14:00:53Z</time>
      </trkpt>
      <trkpt lat="49.03245" lon="7.70727">
        <ele>228.93</ele>
        <time>2017-05-03T14:01:02Z</time>
      </trkpt>
      <trkpt lat="49.03238" lon="7.70715">
        <ele>228.45</ele>
        <time>2017-05-03T14:01:11Z</time>
      </trkpt>
      <trkpt lat="49.03231" lon="7.70711">
        <ele>228.45</ele>
        <time>2017-05-03T14:01:27Z</time>
      </trkpt>
      <trkpt lat="49.03225" lon="7.70695">
        <ele>231.33</ele>
        <time>2017-05-03T14:01:44Z</time>
      </trkpt>
      <trkpt lat="49.03224" lon="7.70671">
        <ele>235.66</ele>
        <time>2017-05-03T14:02:26Z</time>
      </trkpt>
      <trkpt lat="49.03227" lon="7.70657">
        <ele>236.14</ele>
        <time>2017-05-03T14:03:13Z</time>
      </trkpt>
      <trkpt lat="49.03231" lon="7.70647">
        <ele>235.66</ele>
        <time>2017-05-03T14:03:28Z</time>
      </trkpt>
      <trkpt lat="49.03234" lon="7.70623">
        <ele>235.18</ele>
        <time>2017-05-03T14:03:45Z</time>
      </trkpt>
      <trkpt lat="49.03246" lon="7.70593">
        <ele>235.66</ele>
        <time>2017-05-03T14:04:00Z</time>
      </trkpt>
      <trkpt lat="49.03259" lon="7.70574">
        <ele>236.14</ele>
        <time>2017-05-03T14:04:12Z</time>
      </trkpt>
      <trkpt lat="49.03268" lon="7.7055">
        <ele>236.14</ele>
        <time>2017-05-03T14:04:29Z</time>
      </trkpt>
      <trkpt lat="49.03276" lon="7.70538">
        <ele>235.66</ele>
        <time>2017-05-03T14:04:45Z</time>
      </trkpt>
      <trkpt lat="49.03287" lon="7.70518">
        <ele>235.18</ele>
        <time>2017-05-03T14:04:57Z</time>
      </trkpt>
      <trkpt lat="49.03297" lon="7.70503">
        <ele>235.18</ele>
        <time>2017-05-03T14:05:08Z</time>
      </trkpt>
      <trkpt lat="49.03298" lon="7.70486">
        <ele>235.18</ele>
        <time>2017-05-03T14:05:22Z</time>
      </trkpt>
      <trkpt lat="49.03305" lon="7.70475">
        <ele>235.18</ele>
        <time>2017-05-03T14:05:31Z</time>
      </trkpt>
      <trkpt lat="49.03314" lon="7.70463">
        <ele>235.66</ele>
        <time>2017-05-03T14:05:41Z</time>
      </trkpt>
      <trkpt lat="49.03323" lon="7.70442">
        <ele>235.66</ele>
        <time>2017-05-03T14:05:50Z</time>
      </trkpt>
      <trkpt lat="49.03329" lon="7.70427">
        <ele>236.62</ele>
        <time>2017-05-03T14:06:02Z</time>
      </trkpt>
      <trkpt lat="49.03334" lon="7.7041">
        <ele>237.58</ele>
        <time>2017-05-03T14:06:14Z</time>
      </trkpt>
      <trkpt lat="49.03338" lon="7.70392">
        <ele>238.06</ele>
        <time>2017-05-03T14:06:28Z</time>
      </trkpt>
      <trkpt lat="49.03343" lon="7.70367">
        <ele>238.06</ele>
        <time>2017-05-03T14:06:44Z</time>
      </trkpt>
      <trkpt lat="49.03341" lon="7.70342">
        <ele>238.06</ele>
        <time>2017-05-03T14:06:58Z</time>
      </trkpt>
      <trkpt lat="49.03347" lon="7.70314">
        <ele>237.58</ele>
        <time>2017-05-03T14:07:17Z</time>
      </trkpt>
      <trkpt lat="49.03348" lon="7.7028">
        <ele>237.58</ele>
        <time>2017-05-03T14:07:35Z</time>
      </trkpt>
      <trkpt lat="49.03345" lon="7.70261">
        <ele>237.58</ele>
        <time>2017-05-03T14:07:50Z</time>
      </trkpt>
      <trkpt lat="49.0334" lon="7.70248">
        <ele>237.1</ele>
        <time>2017-05-03T14:08:05Z</time>
      </trkpt>
      <trkpt lat="49.03339" lon="7.7022">
        <ele>237.1</ele>
        <time>2017-05-03T14:08:19Z</time>
      </trkpt>
      <trkpt lat="49.03337" lon="7.70207">
        <ele>237.1</ele>
        <time>2017-05-03T14:08:39Z</time>
      </trkpt>
      <trkpt lat="49.03335" lon="7.70192">
        <ele>237.1</ele>
        <time>2017-05-03T14:08:54Z</time>
      </trkpt>
      <trkpt lat="49.03338" lon="7.70169">
        <ele>236.62</ele>
        <time>2017-05-03T14:09:08Z</time>
      </trkpt>
      <trkpt lat="49.03339" lon="7.7012">
        <ele>236.62</ele>
        <time>2017-05-03T14:09:22Z</time>
      </trkpt>
      <trkpt lat="49.03342" lon="7.70084">
        <ele>236.62</ele>
        <time>2017-05-03T14:09:40Z</time>
      </trkpt>
      <trkpt lat="49.0334" lon="7.70057">
        <ele>236.62</ele>
        <time>2017-05-03T14:09:54Z</time>
      </trkpt>
      <trkpt lat="49.03341" lon="7.70034">
        <ele>236.62</ele>
        <time>2017-05-03T14:10:08Z</time>
      </trkpt>
      <trkpt lat="49.03347" lon="7.70011">
        <ele>236.14</ele>
        <time>2017-05-03T14:10:23Z</time>
      </trkpt>
      <trkpt lat="49.03349" lon="7.69989">
        <ele>234.22</ele>
        <time>2017-05-03T14:10:49Z</time>
      </trkpt>
      <trkpt lat="49.03364" lon="7.69964">
        <ele>232.78</ele>
        <time>2017-05-03T14:11:13Z</time>
      </trkpt>
      <trkpt lat="49.0338" lon="7.69939">
        <ele>232.78</ele>
        <time>2017-05-03T14:11:27Z</time>
      </trkpt>
      <trkpt lat="49.03387" lon="7.69926">
        <ele>232.3</ele>
        <time>2017-05-03T14:11:52Z</time>
      </trkpt>
      <trkpt lat="49.03396" lon="7.69916">
        <ele>232.3</ele>
        <time>2017-05-03T14:12:03Z</time>
      </trkpt>
      <trkpt lat="49.03396" lon="7.69898">
        <ele>232.3</ele>
        <time>2017-05-03T14:12:15Z</time>
      </trkpt>
      <trkpt lat="49.03402" lon="7.69881">
        <ele>232.3</ele>
        <time>2017-05-03T14:12:26Z</time>
      </trkpt>
      <trkpt lat="49.03409" lon="7.69867">
        <ele>231.81</ele>
        <time>2017-05-03T14:12:37Z</time>
      </trkpt>
      <trkpt lat="49.03412" lon="7.69852">
        <ele>231.81</ele>
        <time>2017-05-03T14:12:47Z</time>
      </trkpt>
      <trkpt lat="49.03411" lon="7.69826">
        <ele>232.3</ele>
        <time>2017-05-03T14:13:02Z</time>
      </trkpt>
      <trkpt lat="49.03415" lon="7.69809">
        <ele>232.3</ele>
        <time>2017-05-03T14:13:15Z</time>
      </trkpt>
      <trkpt lat="49.03419" lon="7.69791">
        <ele>232.3</ele>
        <time>2017-05-03T14:13:27Z</time>
      </trkpt>
      <trkpt lat="49.03421" lon="7.6977">
        <ele>231.81</ele>
        <time>2017-05-03T14:13:40Z</time>
      </trkpt>
      <trkpt lat="49.03422" lon="7.69752">
        <ele>232.3</ele>
        <time>2017-05-03T14:13:50Z</time>
      </trkpt>
      <trkpt lat="49.03422" lon="7.69732">
        <ele>232.3</ele>
        <time>2017-05-03T14:14:02Z</time>
      </trkpt>
      <trkpt lat="49.03425" lon="7.69714">
        <ele>232.3</ele>
        <time>2017-05-03T14:14:13Z</time>
      </trkpt>
      <trkpt lat="49.03427" lon="7.69697">
        <ele>232.78</ele>
        <time>2017-05-03T14:14:24Z</time>
      </trkpt>
      <trkpt lat="49.0343" lon="7.69681">
        <ele>232.3</ele>
        <time>2017-05-03T14:14:35Z</time>
      </trkpt>
      <trkpt lat="49.03428" lon="7.69667">
        <ele>232.3</ele>
        <time>2017-05-03T14:14:43Z</time>
      </trkpt>
      <trkpt lat="49.03431" lon="7.69649">
        <ele>233.26</ele>
        <time>2017-05-03T14:14:54Z</time>
      </trkpt>
      <trkpt lat="49.03435" lon="7.69631">
        <ele>232.78</ele>
        <time>2017-05-03T14:15:06Z</time>
      </trkpt>
      <trkpt lat="49.03436" lon="7.69614">
        <ele>233.26</ele>
        <time>2017-05-03T14:15:15Z</time>
      </trkpt>
      <trkpt lat="49.03438" lon="7.69595">
        <ele>233.26</ele>
        <time>2017-05-03T14:15:26Z</time>
      </trkpt>
      <trkpt lat="49.03441" lon="7.69579">
        <ele>233.74</ele>
        <time>2017-05-03T14:15:37Z</time>
      </trkpt>
      <trkpt lat="49.03443" lon="7.6956">
        <ele>234.22</ele>
        <time>2017-05-03T14:16:04Z</time>
      </trkpt>
      <trkpt lat="49.03445" lon="7.69542">
        <ele>233.74</ele>
        <time>2017-05-03T14:16:18Z</time>
      </trkpt>
      <trkpt lat="49.03449" lon="7.69529">
        <ele>233.26</ele>
        <time>2017-05-03T14:16:29Z</time>
      </trkpt>
      <trkpt lat="49.03454" lon="7.69516">
        <ele>233.74</ele>
        <time>2017-05-03T14:16:44Z</time>
      </trkpt>
      <trkpt lat="49.0346" lon="7.695">
        <ele>233.74</ele>
        <time>2017-05-03T14:16:55Z</time>
      </trkpt>
      <trkpt lat="49.03459" lon="7.69488">
        <ele>234.22</ele>
        <time>2017-05-03T14:17:07Z</time>
      </trkpt>
      <trkpt lat="49.03463" lon="7.69471">
        <ele>234.7</ele>
        <time>2017-05-03T14:17:17Z</time>
      </trkpt>
      <trkpt lat="49.03469" lon="7.69455">
        <ele>234.7</ele>
        <time>2017-05-03T14:17:28Z</time>
      </trkpt>
      <trkpt lat="49.0347" lon="7.69439">
        <ele>235.18</ele>
        <time>2017-05-03T14:17:38Z</time>
      </trkpt>
      <trkpt lat="49.03473" lon="7.69423">
        <ele>235.66</ele>
        <time>2017-05-03T14:17:49Z</time>
      </trkpt>
      <trkpt lat="49.03474" lon="7.69406">
        <ele>235.18</ele>
        <time>2017-05-03T14:17:59Z</time>
      </trkpt>
      <trkpt lat="49.03476" lon="7.69388">
        <ele>235.66</ele>
        <time>2017-05-03T14:18:10Z</time>
      </trkpt>
      <trkpt lat="49.03481" lon="7.69373">
        <ele>235.66</ele>
        <time>2017-05-03T14:18:22Z</time>
      </trkpt>
      <trkpt lat="49.03479" lon="7.6936">
        <ele>235.66</ele>
        <time>2017-05-03T14:18:33Z</time>
      </trkpt>
      <trkpt lat="49.03478" lon="7.69346">
        <ele>236.14</ele>
        <time>2017-05-03T14:18:42Z</time>
      </trkpt>
      <trkpt lat="49.03477" lon="7.69332">
        <ele>236.14</ele>
        <time>2017-05-03T14:18:52Z</time>
      </trkpt>
      <trkpt lat="49.03477" lon="7.69317">
        <ele>236.62</ele>
        <time>2017-05-03T14:19:01Z</time>
      </trkpt>
      <trkpt lat="49.03476" lon="7.69303">
        <ele>237.58</ele>
        <time>2017-05-03T14:19:11Z</time>
      </trkpt>
      <trkpt lat="49.03479" lon="7.69286">
        <ele>237.58</ele>
        <time>2017-05-03T14:19:21Z</time>
      </trkpt>
      <trkpt lat="49.0348" lon="7.69272">
        <ele>237.58</ele>
        <time>2017-05-03T14:19:31Z</time>
      </trkpt>
      <trkpt lat="49.03482" lon="7.69258">
        <ele>238.06</ele>
        <time>2017-05-03T14:19:42Z</time>
      </trkpt>
      <trkpt lat="49.03482" lon="7.69243">
        <ele>238.06</ele>
        <time>2017-05-03T14:19:53Z</time>
      </trkpt>
      <trkpt lat="49.03483" lon="7.69228">
        <ele>239.02</ele>
        <time>2017-05-03T14:20:11Z</time>
      </trkpt>
      <trkpt lat="49.03486" lon="7.69212">
        <ele>238.54</ele>
        <time>2017-05-03T14:20:21Z</time>
      </trkpt>
      <trkpt lat="49.03484" lon="7.69199">
        <ele>238.54</ele>
        <time>2017-05-03T14:20:32Z</time>
      </trkpt>
      <trkpt lat="49.03483" lon="7.69185">
        <ele>237.58</ele>
        <time>2017-05-03T14:20:43Z</time>
      </trkpt>
      <trkpt lat="49.03485" lon="7.69171">
        <ele>237.1</ele>
        <time>2017-05-03T14:20:55Z</time>
      </trkpt>
      <trkpt lat="49.03486" lon="7.69156">
        <ele>237.1</ele>
        <time>2017-05-03T14:21:05Z</time>
      </trkpt>
      <trkpt lat="49.03488" lon="7.69139">
        <ele>236.62</ele>
        <time>2017-05-03T14:21:16Z</time>
      </trkpt>
      <trkpt lat="49.03486" lon="7.69122">
        <ele>236.14</ele>
        <time>2017-05-03T14:21:27Z</time>
      </trkpt>
      <trkpt lat="49.03487" lon="7.69106">
        <ele>236.14</ele>
        <time>2017-05-03T14:21:38Z</time>
      </trkpt>
      <trkpt lat="49.03491" lon="7.69092">
        <ele>235.18</ele>
        <time>2017-05-03T14:22:07Z</time>
      </trkpt>
      <trkpt lat="49.03495" lon="7.69087">
        <ele>234.7</ele>
        <time>2017-05-03T14:22:22Z</time>
      </trkpt>
      <trkpt lat="49.03506" lon="7.69086">
        <ele>235.18</ele>
        <time>2017-05-03T14:22:32Z</time>
      </trkpt>
      <trkpt lat="49.03517" lon="7.69083">
        <ele>235.18</ele>
        <time>2017-05-03T14:22:42Z</time>
      </trkpt>
      <trkpt lat="49.03529" lon="7.69084">
        <ele>234.7</ele>
        <time>2017-05-03T14:22:55Z</time>
      </trkpt>
      <trkpt lat="49.03541" lon="7.69085">
        <ele>234.7</ele>
        <time>2017-05-03T14:23:07Z</time>
      </trkpt>
      <trkpt lat="49.03552" lon="7.69082">
        <ele>234.7</ele>
        <time>2017-05-03T14:23:17Z</time>
      </trkpt>
      <trkpt lat="49.0356" lon="7.69082">
        <ele>235.66</ele>
        <time>2017-05-03T14:23:28Z</time>
      </trkpt>
      <trkpt lat="49.03573" lon="7.69084">
        <ele>236.14</ele>
        <time>2017-05-03T14:23:52Z</time>
      </trkpt>
      <trkpt lat="49.03577" lon="7.69073">
        <ele>236.62</ele>
        <time>2017-05-03T14:24:04Z</time>
      </trkpt>
      <trkpt lat="49.03576" lon="7.69057">
        <ele>236.14</ele>
        <time>2017-05-03T14:24:14Z</time>
      </trkpt>
      <trkpt lat="49.03581" lon="7.69043">
        <ele>236.14</ele>
        <time>2017-05-03T14:24:24Z</time>
      </trkpt>
      <trkpt lat="49.03582" lon="7.6902">
        <ele>236.62</ele>
        <time>2017-05-03T14:24:37Z</time>
      </trkpt>
      <trkpt lat="49.03586" lon="7.69004">
        <ele>236.62</ele>
        <time>2017-05-03T14:24:48Z</time>
      </trkpt>
      <trkpt lat="49.03581" lon="7.68986">
        <ele>237.58</ele>
        <time>2017-05-03T14:24:57Z</time>
      </trkpt>
      <trkpt lat="49.0358" lon="7.68969">
        <ele>237.1</ele>
        <time>2017-05-03T14:25:20Z</time>
      </trkpt>
      <trkpt lat="49.03585" lon="7.68953">
        <ele>236.14</ele>
        <time>2017-05-03T14:25:29Z</time>
      </trkpt>
      <trkpt lat="49.03587" lon="7.68936">
        <ele>233.74</ele>
        <time>2017-05-03T14:25:39Z</time>
      </trkpt>
      <trkpt lat="49.03585" lon="7.6892">
        <ele>237.58</ele>
        <time>2017-05-03T14:25:47Z</time>
      </trkpt>
      <trkpt lat="49.03583" lon="7.68904">
        <ele>239.02</ele>
        <time>2017-05-03T14:26:04Z</time>
      </trkpt>
      <trkpt lat="49.0358" lon="7.68891">
        <ele>233.74</ele>
        <time>2017-05-03T14:26:13Z</time>
      </trkpt>
      <trkpt lat="49.03579" lon="7.68877">
        <ele>238.54</ele>
        <time>2017-05-03T14:26:22Z</time>
      </trkpt>
      <trkpt lat="49.03582" lon="7.68863">
        <ele>236.62</ele>
        <time>2017-05-03T14:26:31Z</time>
      </trkpt>
      <trkpt lat="49.03582" lon="7.68847">
        <ele>237.1</ele>
        <time>2017-05-03T14:26:41Z</time>
      </trkpt>
      <trkpt lat="49.03583" lon="7.68834">
        <ele>238.06</ele>
        <time>2017-05-03T14:26:50Z</time>
      </trkpt>
      <trkpt lat="49.03587" lon="7.68821">
        <ele>236.14</ele>
        <time>2017-05-03T14:26:59Z</time>
      </trkpt>
      <trkpt lat="49.03591" lon="7.68808">
        <ele>235.66</ele>
        <time>2017-05-03T14:27:08Z</time>
      </trkpt>
      <trkpt lat="49.03597" lon="7.68795">
        <ele>236.14</ele>
        <time>2017-05-03T14:27:16Z</time>
      </trkpt>
      <trkpt lat="49.036" lon="7.6878">
        <ele>236.14</ele>
        <time>2017-05-03T14:27:27Z</time>
      </trkpt>
      <trkpt lat="49.03606" lon="7.68773">
        <ele>238.06</ele>
        <time>2017-05-03T14:27:38Z</time>
      </trkpt>
      <trkpt lat="49.03617" lon="7.68772">
        <ele>237.1</ele>
        <time>2017-05-03T14:28:28Z</time>
      </trkpt>
      <trkpt lat="49.03602" lon="7.68767">
        <ele>233.26</ele>
        <time>2017-05-03T14:28:41Z</time>
      </trkpt>
      <trkpt lat="49.03602" lon="7.68752">
        <ele>236.62</ele>
        <time>2017-05-03T14:28:51Z</time>
      </trkpt>
      <trkpt lat="49.03602" lon="7.68737">
        <ele>238.06</ele>
        <time>2017-05-03T14:29:07Z</time>
      </trkpt>
      <trkpt lat="49.03603" lon="7.68724">
        <ele>236.14</ele>
        <time>2017-05-03T14:29:18Z</time>
      </trkpt>
      <trkpt lat="49.03606" lon="7.68709">
        <ele>237.58</ele>
        <time>2017-05-03T14:29:30Z</time>
      </trkpt>
      <trkpt lat="49.0361" lon="7.68694">
        <ele>235.66</ele>
        <time>2017-05-03T14:29:40Z</time>
      </trkpt>
      <trkpt lat="49.03614" lon="7.68695">
        <ele>235.66</ele>
        <time>2017-05-03T14:30:15Z</time>
      </trkpt>
      <trkpt lat="49.03608" lon="7.68688">
        <ele>236.62</ele>
        <time>2017-05-03T14:30:33Z</time>
      </trkpt>
      <trkpt lat="49.03612" lon="7.68683">
        <ele>238.06</ele>
        <time>2017-05-03T14:30:58Z</time>
      </trkpt>
      <trkpt lat="49.03611" lon="7.68666">
        <ele>234.7</ele>
        <time>2017-05-03T14:31:08Z</time>
      </trkpt>
      <trkpt lat="49.03614" lon="7.68651">
        <ele>234.7</ele>
        <time>2017-05-03T14:31:21Z</time>
      </trkpt>
      <trkpt lat="49.03619" lon="7.68637">
        <ele>239.02</ele>
        <time>2017-05-03T14:31:30Z</time>
      </trkpt>
      <trkpt lat="49.0362" lon="7.68621">
        <ele>238.06</ele>
        <time>2017-05-03T14:31:39Z</time>
      </trkpt>
      <trkpt lat="49.03621" lon="7.68606">
        <ele>235.66</ele>
        <time>2017-05-03T14:31:48Z</time>
      </trkpt>
      <trkpt lat="49.03624" lon="7.68592">
        <ele>239.51</ele>
        <time>2017-05-03T14:32:11Z</time>
      </trkpt>
      <trkpt lat="49.03631" lon="7.68578">
        <ele>237.58</ele>
        <time>2017-05-03T14:32:20Z</time>
      </trkpt>
      <trkpt lat="49.03638" lon="7.68565">
        <ele>237.58</ele>
        <time>2017-05-03T14:32:29Z</time>
      </trkpt>
      <trkpt lat="49.03639" lon="7.6855">
        <ele>237.58</ele>
        <time>2017-05-03T14:32:38Z</time>
      </trkpt>
      <trkpt lat="49.03644" lon="7.68535">
        <ele>239.99</ele>
        <time>2017-05-03T14:32:47Z</time>
      </trkpt>
      <trkpt lat="49.03645" lon="7.6852">
        <ele>240.95</ele>
        <time>2017-05-03T14:32:56Z</time>
      </trkpt>
      <trkpt lat="49.03647" lon="7.68504">
        <ele>238.06</ele>
        <time>2017-05-03T14:33:05Z</time>
      </trkpt>
      <trkpt lat="49.03649" lon="7.68489">
        <ele>239.99</ele>
        <time>2017-05-03T14:33:14Z</time>
      </trkpt>
      <trkpt lat="49.03652" lon="7.68474">
        <ele>240.95</ele>
        <time>2017-05-03T14:33:23Z</time>
      </trkpt>
      <trkpt lat="49.03652" lon="7.68458">
        <ele>237.58</ele>
        <time>2017-05-03T14:33:37Z</time>
      </trkpt>
      <trkpt lat="49.03655" lon="7.68443">
        <ele>241.43</ele>
        <time>2017-05-03T14:33:52Z</time>
      </trkpt>
      <trkpt lat="49.03655" lon="7.68428">
        <ele>240.47</ele>
        <time>2017-05-03T14:34:01Z</time>
      </trkpt>
      <trkpt lat="49.03658" lon="7.68413">
        <ele>241.91</ele>
        <time>2017-05-03T14:34:11Z</time>
      </trkpt>
      <trkpt lat="49.03663" lon="7.68398">
        <ele>241.91</ele>
        <time>2017-05-03T14:34:22Z</time>
      </trkpt>
      <trkpt lat="49.03665" lon="7.68381">
        <ele>241.43</ele>
        <time>2017-05-03T14:34:33Z</time>
      </trkpt>
      <trkpt lat="49.03665" lon="7.68365">
        <ele>241.43</ele>
        <time>2017-05-03T14:34:44Z</time>
      </trkpt>
      <trkpt lat="49.03674" lon="7.68349">
        <ele>242.39</ele>
        <time>2017-05-03T14:34:57Z</time>
      </trkpt>
    </trkseg>
  </trk>
</gpx>